Observation data for Mertzon on 01/11/2018      Previous  Date  Next       Current Mesonet Observations  Soil Data  Daily Summary Page  Observations in Plain Language
KME1 110600Z 23008KT 11/02 A2975 RMK A01 T01100016  RH  052%=      5-min Rain = 0
KME1 110601Z 23007KT 11/02 A2974 RMK A01 T01100016  RH  052%=      5-min Rain = 0
KME1 110602Z 23006KT 11/02 A2974 RMK A01 T01110016  RH  052%=      5-min Rain = 0
KME1 110603Z 23007KT 11/02 A2974 RMK A01 T01100016  RH  052%=      5-min Rain = 0
KME1 110604Z 23005KT 11/02 A2974 RMK A01 T01090015  RH  052%=      5-min Rain = 0
KME1 110605Z 23005KT 11/02 A2974 RMK A01 T01080015  RH  053%=      5-min Rain = 0
KME1 110606Z 24005KT 11/02 A2974 RMK A01 T01070015  RH  053%=      5-min Rain = 0
KME1 110607Z 23005KT 11/02 A2974 RMK A01 T01060015  RH  053%=      5-min Rain = 0
KME1 110608Z 22006KT 11/01 A2974 RMK A01 T01050014  RH  053%=      5-min Rain = 0
KME1 110609Z 22006KT 10/02 A2974 RMK A01 T01040015  RH  054%=      5-min Rain = 0
KME1 110610Z 22005KT 10/02 A2974 RMK A01 T01040015  RH  054%=      5-min Rain = 0
KME1 110611Z 22006KT 10/02 A2974 RMK A01 T01030015  RH  054%=      5-min Rain = 0
KME1 110612Z 21008KT 10/02 A2974 RMK A01 T01020015  RH  055%=      5-min Rain = 0
KME1 110613Z 21007KT 10/02 A2974 RMK A01 T01020015  RH  055%=      5-min Rain = 0
KME1 110614Z 21007KT 10/02 A2974 RMK A01 T01030016  RH  055%=      5-min Rain = 0
KME1 110615Z 21006KT 10/02 A2974 RMK A01 T01030016  RH  055%=      5-min Rain = 0
KME1 110616Z 21007KT 10/02 A2974 RMK A01 T01030016  RH  055%=      5-min Rain = 0
KME1 110617Z 21006KT 10/02 A2974 RMK A01 T01020016  RH  055%=      5-min Rain = 0
KME1 110618Z 21006KT 10/02 A2974 RMK A01 T01020016  RH  055%=      5-min Rain = 0
KME1 110619Z 22006KT 10/02 A2974 RMK A01 T01020016  RH  055%=      5-min Rain = 0
KME1 110620Z 21006KT 10/02 A2973 RMK A01 T01020016  RH  055%=      5-min Rain = 0
KME1 110621Z 20006KT 10/02 A2973 RMK A01 T01010016  RH  055%=      5-min Rain = 0
KME1 110622Z 21006KT 10/02 A2973 RMK A01 T01000015  RH  056%=      5-min Rain = 0
KME1 110623Z 21006KT 10/02 A2973 RMK A01 T00990015  RH  056%=      5-min Rain = 0
KME1 110624Z 21006KT 10/02 A2973 RMK A01 T00980015  RH  056%=      5-min Rain = 0
KME1 110625Z 21007KT 10/02 A2973 RMK A01 T00980015  RH  056%=      5-min Rain = 0
KME1 110626Z 21007KT 10/02 A2973 RMK A01 T00980015  RH  056%=      5-min Rain = 0
KME1 110627Z 20006KT 10/02 A2973 RMK A01 T00980016  RH  056%=      5-min Rain = 0
KME1 110628Z 20007KT 10/02 A2973 RMK A01 T00980016  RH  056%=      5-min Rain = 0
KME1 110629Z 20008KT 10/02 A2973 RMK A01 T00970015  RH  057%=      5-min Rain = 0
KME1 110630Z 20007KT 10/02 A2973 RMK A01 T00960015  RH  057%=      5-min Rain = 0
KME1 110631Z 20007KT 10/02 A2973 RMK A01 T00950015  RH  057%=      5-min Rain = 0
KME1 110632Z 20008KT 10/02 A2973 RMK A01 T00950015  RH  058%=      5-min Rain = 0
KME1 110633Z 21007KT 09/02 A2973 RMK A01 T00940015  RH  058%=      5-min Rain = 0
KME1 110634Z 22006KT 10/02 A2973 RMK A01 T00950016  RH  058%=      5-min Rain = 0
KME1 110635Z 23007KT 10/02 A2973 RMK A01 T00960016  RH  058%=      5-min Rain = 0
KME1 110636Z 24006KT 10/02 A2973 RMK A01 T00960016  RH  057%=      5-min Rain = 0
KME1 110637Z 24007KT 10/02 A2973 RMK A01 T00960016  RH  057%=      5-min Rain = 0
KME1 110638Z 23006KT 10/02 A2973 RMK A01 T00960016  RH  057%=      5-min Rain = 0
KME1 110639Z 23006KT 10/02 A2973 RMK A01 T00970016  RH  057%=      5-min Rain = 0
KME1 110640Z 23007KT 10/02 A2973 RMK A01 T00960016  RH  057%=      5-min Rain = 0
KME1 110641Z 22008KT 10/02 A2973 RMK A01 T00970016  RH  057%=      5-min Rain = 0
KME1 110642Z 22008KT 10/02 A2973 RMK A01 T00980017  RH  057%=      5-min Rain = 0
KME1 110643Z 21009KT 10/02 A2973 RMK A01 T00990018  RH  057%=      5-min Rain = 0
KME1 110644Z 22009KT 10/02 A2973 RMK A01 T01010018  RH  057%=      5-min Rain = 0
KME1 110645Z 22008KT 10/02 A2973 RMK A01 T01030019  RH  056%=      5-min Rain = 0
KME1 110646Z 21008KT 10/02 A2973 RMK A01 T01030019  RH  056%=      5-min Rain = 0
KME1 110647Z 22010KT 10/02 A2973 RMK A01 T01030018  RH  056%=      5-min Rain = 0
KME1 110648Z 23012KT 10/02 A2973 RMK A01 T01040019  RH  055%=      5-min Rain = 0
KME1 110649Z 22009KT 11/02 A2973 RMK A01 T01050019  RH  055%=      5-min Rain = 0
KME1 110650Z 23010KT 11/02 A2973 RMK A01 T01060019  RH  055%=      5-min Rain = 0
KME1 110651Z 23010KT 11/02 A2973 RMK A01 T01070019  RH  054%=      5-min Rain = 0
KME1 110652Z 22009KT 11/02 A2973 RMK A01 T01080019  RH  054%=      5-min Rain = 0
KME1 110653Z 22010KT 11/02 A2973 RMK A01 T01080019  RH  054%=      5-min Rain = 0
KME1 110654Z 23011KT 11/02 A2973 RMK A01 T01080019  RH  054%=      5-min Rain = 0
KME1 110655Z 23010KT 11/02 A2973 RMK A01 T01090019  RH  054%=      5-min Rain = 0
KME1 110656Z 23009KT 11/02 A2973 RMK A01 T01100019  RH  054%=      5-min Rain = 0
KME1 110657Z 24010KT 11/02 A2973 RMK A01 T01100019  RH  053%=      5-min Rain = 0
KME1 110658Z 23012KT 11/02 A2973 RMK A01 T01110020  RH  053%=      5-min Rain = 0
KME1 110659Z 23011KT 11/02 A2973 RMK A01 T01130020  RH  053%=      5-min Rain = 0
KME1 110700Z 23011KT 11/02 A2973 RMK A01 T01140021  RH  053%=      5-min Rain = 0
KME1 110701Z 22011KT 12/02 A2973 RMK A01 T01160021  RH  052%=      5-min Rain = 0
KME1 110702Z 22009KT 12/02 A2973 RMK A01 T01160021  RH  052%=      5-min Rain = 0
KME1 110703Z 22009KT 12/02 A2973 RMK A01 T01170021  RH  052%=      5-min Rain = 0
KME1 110704Z 22009KT 12/02 A2973 RMK A01 T01170021  RH  052%=      5-min Rain = 0
KME1 110705Z 22009KT 12/02 A2973 RMK A01 T01170022  RH  052%=      5-min Rain = 0
KME1 110706Z 21010KT 12/02 A2973 RMK A01 T01170022  RH  052%=      5-min Rain = 0
KME1 110707Z 22009KT 12/02 A2973 RMK A01 T01160022  RH  052%=      5-min Rain = 0
KME1 110708Z 22011KT 12/02 A2973 RMK A01 T01160022  RH  052%=      5-min Rain = 0
KME1 110709Z 22011KT 12/02 A2973 RMK A01 T01170023  RH  052%=      5-min Rain = 0
KME1 110710Z 22011KT 12/02 A2973 RMK A01 T01170023  RH  052%=      5-min Rain = 0
KME1 110711Z 23010KT 12/02 A2973 RMK A01 T01170023  RH  052%=      5-min Rain = 0
KME1 110712Z 22011KT 12/02 A2973 RMK A01 T01170024  RH  053%=      5-min Rain = 0
KME1 110713Z 23011KT 12/02 A2973 RMK A01 T01180024  RH  053%=      5-min Rain = 0
KME1 110714Z 23013KT 12/03 A2973 RMK A01 T01190025  RH  053%=      5-min Rain = 0
KME1 110715Z 22011KT 12/03 A2973 RMK A01 T01210026  RH  052%=      5-min Rain = 0
KME1 110716Z 23011KT 12/03 A2973 RMK A01 T01220026  RH  052%=      5-min Rain = 0
KME1 110717Z 23012KT 12/03 A2973 RMK A01 T01220026  RH  052%=      5-min Rain = 0
KME1 110718Z 23013KT 12/03 A2973 RMK A01 T01220026  RH  052%=      5-min Rain = 0
KME1 110719Z 23014G19KT 12/03 A2973 RMK A01 T01240026  RH  051%=      5-min Rain = 0
KME1 110720Z 24012KT 13/03 A2973 RMK A01 T01260027  RH  051%=      5-min Rain = 0
KME1 110721Z 24012KT 13/03 A2973 RMK A01 T01270027  RH  051%=      5-min Rain = 0
KME1 110722Z 23013G20KT 13/03 A2973 RMK A01 T01270027  RH  051%=      5-min Rain = 0
KME1 110723Z 24013KT 13/03 A2973 RMK A01 T01280028  RH  050%=      5-min Rain = 0
KME1 110724Z 23015G20KT 13/03 A2973 RMK A01 T01290028  RH  050%=      5-min Rain = 0
KME1 110725Z 24013KT 13/03 A2973 RMK A01 T01310029  RH  050%=      5-min Rain = 0
KME1 110726Z 23014KT 13/03 A2973 RMK A01 T01320029  RH  050%=      5-min Rain = 0
KME1 110727Z 24014KT 13/03 A2973 RMK A01 T01320029  RH  050%=      5-min Rain = 0
KME1 110728Z 23014G19KT 13/03 A2973 RMK A01 T01320029  RH  050%=      5-min Rain = 0
KME1 110729Z 24014G20KT 13/03 A2973 RMK A01 T01320029  RH  049%=      5-min Rain = 0
KME1 110730Z 24012G17KT 13/03 A2973 RMK A01 T01330029  RH  049%=      5-min Rain = 0
KME1 110731Z 24014G20KT 13/03 A2973 RMK A01 T01330029  RH  049%=      5-min Rain = 0
KME1 110732Z 24014G23KT 13/03 A2973 RMK A01 T01330029  RH  049%=      5-min Rain = 0
KME1 110733Z 24015KT 13/03 A2973 RMK A01 T01340029  RH  049%=      5-min Rain = 0
KME1 110734Z 24011KT 13/03 A2973 RMK A01 T01340029  RH  049%=      5-min Rain = 0
KME1 110735Z 23014G20KT 13/03 A2973 RMK A01 T01340029  RH  049%=      5-min Rain = 0
KME1 110736Z 23012G17KT 13/03 A2973 RMK A01 T01340029  RH  049%=      5-min Rain = 0
KME1 110737Z 23013G18KT 14/03 A2973 RMK A01 T01350029  RH  049%=      5-min Rain = 0
KME1 110738Z 24015KT 14/03 A2973 RMK A01 T01350028  RH  048%=      5-min Rain = 0
KME1 110739Z 24016KT 14/03 A2973 RMK A01 T01360028  RH  048%=      5-min Rain = 0
KME1 110740Z 24012KT 14/03 A2973 RMK A01 T01360028  RH  048%=      5-min Rain = 0
KME1 110741Z 24015G20KT 14/03 A2973 RMK A01 T01360028  RH  048%=      5-min Rain = 0
KME1 110742Z 24013G18KT 14/03 A2973 RMK A01 T01370028  RH  048%=      5-min Rain = 0
KME1 110743Z 24014G22KT 14/03 A2973 RMK A01 T01370028  RH  048%=      5-min Rain = 0
KME1 110744Z 24015KT 14/03 A2973 RMK A01 T01370028  RH  048%=      5-min Rain = 0
KME1 110745Z 24017G23KT 14/03 A2973 RMK A01 T01370028  RH  048%=      5-min Rain = 0
KME1 110746Z 24012G18KT 14/03 A2973 RMK A01 T01380028  RH  047%=      5-min Rain = 0
KME1 110747Z 24016KT 14/03 A2973 RMK A01 T01390028  RH  047%=      5-min Rain = 0
KME1 110748Z 24013KT 14/03 A2973 RMK A01 T01390028  RH  047%=      5-min Rain = 0
KME1 110749Z 24015KT 14/03 A2973 RMK A01 T01390028  RH  047%=      5-min Rain = 0
KME1 110750Z 24015G22KT 14/03 A2973 RMK A01 T01390028  RH  047%=      5-min Rain = 0
KME1 110751Z 25012KT 14/03 A2973 RMK A01 T01390027  RH  047%=      5-min Rain = 0
KME1 110752Z 25012G18KT 14/03 A2973 RMK A01 T01400028  RH  047%=      5-min Rain = 0
KME1 110753Z 25013KT 14/03 A2973 RMK A01 T01390027  RH  047%=      5-min Rain = 0
KME1 110754Z 25013G20KT 14/03 A2973 RMK A01 T01390026  RH  046%=      5-min Rain = 0
KME1 110755Z 24012G17KT 14/03 A2973 RMK A01 T01400026  RH  046%=      5-min Rain = 0
KME1 110756Z 24014G19KT 14/03 A2973 RMK A01 T01410026  RH  046%=      5-min Rain = 0
KME1 110757Z 25013G20KT 14/03 A2973 RMK A01 T01420025  RH  045%=      5-min Rain = 0
KME1 110758Z 24018G23KT 14/03 A2973 RMK A01 T01430025  RH  045%=      5-min Rain = 0
KME1 110759Z 24013KT 14/02 A2973 RMK A01 T01440024  RH  044%=      5-min Rain = 0
KME1 110800Z 25010G16KT 15/02 A2973 RMK A01 T01450024  RH  044%=      5-min Rain = 0
KME1 110801Z 24015KT 14/02 A2973 RMK A01 T01440024  RH  044%=      5-min Rain = 0
KME1 110802Z 24014KT 14/02 A2973 RMK A01 T01440024  RH  044%=      5-min Rain = 0
KME1 110803Z 24016G21KT 15/02 A2973 RMK A01 T01450024  RH  044%=      5-min Rain = 0
KME1 110804Z 24015G20KT 15/02 A2973 RMK A01 T01450023  RH  044%=      5-min Rain = 0
KME1 110805Z 24015G21KT 15/02 A2973 RMK A01 T01460023  RH  043%=      5-min Rain = 0
KME1 110806Z 24015G20KT 15/02 A2973 RMK A01 T01460023  RH  043%=      5-min Rain = 0
KME1 110807Z 24015G21KT 15/02 A2973 RMK A01 T01460023  RH  043%=      5-min Rain = 0
KME1 110808Z 24015KT 15/02 A2973 RMK A01 T01470023  RH  043%=      5-min Rain = 0
KME1 110809Z 25014KT 15/02 A2973 RMK A01 T01470023  RH  043%=      5-min Rain = 0
KME1 110810Z 24014KT 15/02 A2973 RMK A01 T01470023  RH  043%=      5-min Rain = 0
KME1 110811Z 24018G24KT 15/02 A2973 RMK A01 T01470023  RH  043%=      5-min Rain = 0
KME1 110812Z 24018G26KT 15/02 A2973 RMK A01 T01480024  RH  043%=      5-min Rain = 0
KME1 110813Z 25015KT 15/02 A2973 RMK A01 T01480023  RH  043%=      5-min Rain = 0
KME1 110814Z 24014G20KT 15/02 A2973 RMK A01 T01480023  RH  043%=      5-min Rain = 0
KME1 110815Z 24016KT 15/02 A2973 RMK A01 T01470023  RH  043%=      5-min Rain = 0
KME1 110816Z 24015KT 15/02 A2973 RMK A01 T01480024  RH  043%=      5-min Rain = 0
KME1 110817Z 24018G24KT 15/02 A2973 RMK A01 T01470023  RH  043%=      5-min Rain = 0
KME1 110818Z 24018KT 15/02 A2973 RMK A01 T01470022  RH  043%=      5-min Rain = 0
KME1 110819Z 24017G22KT 15/02 A2973 RMK A01 T01480022  RH  043%=      5-min Rain = 0
KME1 110820Z 24017KT 15/02 A2973 RMK A01 T01480022  RH  043%=      5-min Rain = 0
KME1 110821Z 24016KT 15/02 A2972 RMK A01 T01470022  RH  043%=      5-min Rain = 0
KME1 110822Z 25015G21KT 15/02 A2972 RMK A01 T01470022  RH  043%=      5-min Rain = 0
KME1 110823Z 24014KT 15/02 A2972 RMK A01 T01470021  RH  043%=      5-min Rain = 0
KME1 110824Z 24018G24KT 15/02 A2972 RMK A01 T01470022  RH  043%=      5-min Rain = 0
KME1 110825Z 24018G23KT 15/02 A2972 RMK A01 T01470022  RH  043%=      5-min Rain = 0
KME1 110826Z 24015G23KT 15/02 A2972 RMK A01 T01470022  RH  043%=      5-min Rain = 0
KME1 110827Z 23017G22KT 15/02 A2972 RMK A01 T01470022  RH  043%=      5-min Rain = 0
KME1 110828Z 24016G22KT 15/02 A2972 RMK A01 T01470021  RH  043%=      5-min Rain = 0
KME1 110829Z 23016KT 15/02 A2972 RMK A01 T01470020  RH  042%=      5-min Rain = 0
KME1 110830Z 24017G23KT 15/02 A2972 RMK A01 T01470020  RH  042%=      5-min Rain = 0
KME1 110831Z 24019G24KT 15/02 A2972 RMK A01 T01470019  RH  042%=      5-min Rain = 0
KME1 110832Z 24016G22KT 15/02 A2972 RMK A01 T01460019  RH  042%=      5-min Rain = 0
KME1 110833Z 24014G19KT 15/02 A2972 RMK A01 T01470018  RH  042%=      5-min Rain = 0
KME1 110834Z 24014KT 15/02 A2972 RMK A01 T01470018  RH  042%=      5-min Rain = 0
KME1 110835Z 23012G19KT 15/02 A2972 RMK A01 T01460018  RH  042%=      5-min Rain = 0
KME1 110836Z 23013KT 15/02 A2972 RMK A01 T01450018  RH  042%=      5-min Rain = 0
KME1 110837Z 24014G20KT 15/02 A2972 RMK A01 T01450019  RH  042%=      5-min Rain = 0
KME1 110838Z 24015G21KT 14/02 A2972 RMK A01 T01440018  RH  042%=      5-min Rain = 0
KME1 110839Z 24016G21KT 14/02 A2972 RMK A01 T01440018  RH  042%=      5-min Rain = 0
KME1 110840Z 24015KT 14/02 A2972 RMK A01 T01440018  RH  042%=      5-min Rain = 0
KME1 110841Z 24014KT 14/02 A2972 RMK A01 T01440017  RH  042%=      5-min Rain = 0
KME1 110842Z 23013G19KT 14/02 A2972 RMK A01 T01440017  RH  042%=      5-min Rain = 0
KME1 110843Z 23015G21KT 14/02 A2972 RMK A01 T01430017  RH  042%=      5-min Rain = 0
KME1 110844Z 24016KT 14/02 A2972 RMK A01 T01430016  RH  042%=      5-min Rain = 0
KME1 110845Z 23015G20KT 14/02 A2972 RMK A01 T01430016  RH  042%=      5-min Rain = 0
KME1 110846Z 23013G18KT 14/02 A2972 RMK A01 T01430016  RH  042%=      5-min Rain = 0
KME1 110847Z 23014KT 14/02 A2973 RMK A01 T01420016  RH  042%=      5-min Rain = 0
KME1 110848Z 23015G22KT 14/02 A2972 RMK A01 T01420016  RH  042%=      5-min Rain = 0
KME1 110849Z 24014G19KT 14/02 A2972 RMK A01 T01420016  RH  042%=      5-min Rain = 0
KME1 110850Z 23014KT 14/02 A2973 RMK A01 T01420016  RH  042%=      5-min Rain = 0
KME1 110851Z 23014KT 14/02 A2973 RMK A01 T01420015  RH  042%=      5-min Rain = 0
KME1 110852Z 23012KT 14/02 A2973 RMK A01 T01410016  RH  042%=      5-min Rain = 0
KME1 110853Z 23013KT 14/02 A2973 RMK A01 T01410016  RH  043%=      5-min Rain = 0
KME1 110854Z 23016G21KT 14/02 A2972 RMK A01 T01400015  RH  043%=      5-min Rain = 0
KME1 110855Z 23015G20KT 14/02 A2973 RMK A01 T01400015  RH  043%=      5-min Rain = 0
KME1 110856Z 23012G20KT 14/02 A2973 RMK A01 T01400015  RH  043%=      5-min Rain = 0
KME1 110857Z 23013KT 14/01 A2973 RMK A01 T01400014  RH  042%=      5-min Rain = 0
KME1 110858Z 23015G20KT 14/02 A2973 RMK A01 T01400015  RH  043%=      5-min Rain = 0
KME1 110859Z 24016KT 14/02 A2973 RMK A01 T01400015  RH  043%=      5-min Rain = 0
KME1 110900Z 23013G19KT 14/01 A2973 RMK A01 T01400014  RH  042%=      5-min Rain = 0
KME1 110901Z 23014KT 14/01 A2973 RMK A01 T01400014  RH  042%=      5-min Rain = 0
KME1 110902Z 23013G18KT 14/01 A2973 RMK A01 T01400014  RH  043%=      5-min Rain = 0
KME1 110903Z 23016KT 14/01 A2973 RMK A01 T01400014  RH  042%=      5-min Rain = 0
KME1 110904Z 22014KT 14/01 A2973 RMK A01 T01400014  RH  042%=      5-min Rain = 0
KME1 110905Z 23014G20KT 14/01 A2973 RMK A01 T01390014  RH  043%=      5-min Rain = 0
KME1 110906Z 23014KT 14/01 A2973 RMK A01 T01390014  RH  043%=      5-min Rain = 0
KME1 110907Z 23012G18KT 14/01 A2973 RMK A01 T01390014  RH  043%=      5-min Rain = 0
KME1 110908Z 24013KT 14/01 A2973 RMK A01 T01380014  RH  043%=      5-min Rain = 0
KME1 110909Z 23013KT 14/01 A2973 RMK A01 T01380014  RH  043%=      5-min Rain = 0
KME1 110910Z 23012KT 14/01 A2973 RMK A01 T01370014  RH  043%=      5-min Rain = 0
KME1 110911Z 24012G17KT 14/01 A2973 RMK A01 T01370014  RH  043%=      5-min Rain = 0
KME1 110912Z 23011KT 14/01 A2973 RMK A01 T01360014  RH  043%=      5-min Rain = 0
KME1 110913Z 24011KT 14/01 A2973 RMK A01 T01360014  RH  043%=      5-min Rain = 0
KME1 110914Z 24012KT 14/01 A2973 RMK A01 T01360014  RH  043%=      5-min Rain = 0
KME1 110915Z 24013G19KT 14/01 A2973 RMK A01 T01360014  RH  043%=      5-min Rain = 0
KME1 110916Z 24011G16KT 14/01 A2973 RMK A01 T01370014  RH  043%=      5-min Rain = 0
KME1 110917Z 24013KT 14/01 A2973 RMK A01 T01370013  RH  043%=      5-min Rain = 0
KME1 110918Z 23011KT 14/01 A2973 RMK A01 T01370013  RH  043%=      5-min Rain = 0
KME1 110919Z 24010KT 14/01 A2973 RMK A01 T01370013  RH  043%=      5-min Rain = 0
KME1 110920Z 23011KT 14/01 A2973 RMK A01 T01370013  RH  043%=      5-min Rain = 0
KME1 110921Z 24015KT 14/01 A2973 RMK A01 T01370014  RH  043%=      5-min Rain = 0
KME1 110922Z 23012KT 14/01 A2973 RMK A01 T01370013  RH  043%=      5-min Rain = 0
KME1 110923Z 24011KT 14/01 A2973 RMK A01 T01370013  RH  043%=      5-min Rain = 0
KME1 110924Z 23008KT 14/01 A2973 RMK A01 T01360013  RH  043%=      5-min Rain = 0
KME1 110925Z 23013KT 14/01 A2973 RMK A01 T01350013  RH  043%=      5-min Rain = 0
KME1 110926Z 23011KT 14/01 A2973 RMK A01 T01350013  RH  043%=      5-min Rain = 0
KME1 110927Z 24008KT 14/01 A2973 RMK A01 T01350013  RH  043%=      5-min Rain = 0
KME1 110928Z 23011KT 13/01 A2973 RMK A01 T01340013  RH  044%=      5-min Rain = 0
KME1 110929Z 24011G16KT 13/01 A2973 RMK A01 T01340013  RH  044%=      5-min Rain = 0
KME1 110930Z 23010KT 13/01 A2973 RMK A01 T01340013  RH  044%=      5-min Rain = 0
KME1 110931Z 23008KT 13/01 A2973 RMK A01 T01340013  RH  044%=      5-min Rain = 0
KME1 110932Z 24008KT 13/01 A2973 RMK A01 T01330013  RH  044%=      5-min Rain = 0
KME1 110933Z 24007KT 13/01 A2973 RMK A01 T01330012  RH  044%=      5-min Rain = 0
KME1 110934Z 23011KT 13/01 A2973 RMK A01 T01320012  RH  044%=      5-min Rain = 0
KME1 110935Z 24010KT 13/01 A2973 RMK A01 T01320012  RH  044%=      5-min Rain = 0
KME1 110936Z 24012KT 13/01 A2973 RMK A01 T01330012  RH  043%=      5-min Rain = 0
KME1 110937Z 24007KT 14/01 A2973 RMK A01 T01350012  RH  043%=      5-min Rain = 0
KME1 110938Z 23008KT 13/01 A2973 RMK A01 T01340012  RH  043%=      5-min Rain = 0
KME1 110939Z 24010KT 13/01 A2973 RMK A01 T01330012  RH  043%=      5-min Rain = 0
KME1 110940Z 23010KT 13/01 A2973 RMK A01 T01330011  RH  043%=      5-min Rain = 0
KME1 110941Z 24012KT 13/01 A2973 RMK A01 T01340011  RH  043%=      5-min Rain = 0
KME1 110942Z 24011KT 14/01 A2973 RMK A01 T01350011  RH  043%=      5-min Rain = 0
KME1 110943Z 23011KT 14/01 A2973 RMK A01 T01360011  RH  043%=      5-min Rain = 0
KME1 110944Z 24010KT 14/01 A2973 RMK A01 T01360011  RH  042%=      5-min Rain = 0
KME1 110945Z 23010KT 14/01 A2973 RMK A01 T01370011  RH  042%=      5-min Rain = 0
KME1 110946Z 23010KT 14/01 A2973 RMK A01 T01370011  RH  042%=      5-min Rain = 0
KME1 110947Z 24009KT 14/01 A2973 RMK A01 T01370011  RH  042%=      5-min Rain = 0
KME1 110948Z 23009KT 14/01 A2973 RMK A01 T01370011  RH  042%=      5-min Rain = 0
KME1 110949Z 24009KT 14/01 A2974 RMK A01 T01360011  RH  042%=      5-min Rain = 0
KME1 110950Z 24010KT 14/01 A2974 RMK A01 T01360011  RH  043%=      5-min Rain = 0
KME1 110951Z 23009KT 14/01 A2974 RMK A01 T01360011  RH  043%=      5-min Rain = 0
KME1 110952Z 22008KT 14/01 A2974 RMK A01 T01350011  RH  043%=      5-min Rain = 0
KME1 110953Z 23009KT 13/01 A2974 RMK A01 T01340011  RH  043%=      5-min Rain = 0
KME1 110954Z 23007KT 13/01 A2973 RMK A01 T01340011  RH  043%=      5-min Rain = 0
KME1 110955Z 23007KT 13/01 A2973 RMK A01 T01340011  RH  043%=      5-min Rain = 0
KME1 110956Z 22008KT 13/01 A2974 RMK A01 T01330011  RH  043%=      5-min Rain = 0
KME1 110957Z 23007KT 13/01 A2974 RMK A01 T01320011  RH  044%=      5-min Rain = 0
KME1 110958Z 23009KT 13/01 A2974 RMK A01 T01310011  RH  044%=      5-min Rain = 0
KME1 110959Z 22010KT 13/01 A2973 RMK A01 T01320011  RH  044%=      5-min Rain = 0
KME1 111000Z 22008KT 13/01 A2974 RMK A01 T01320011  RH  044%=      5-min Rain = 0
KME1 111001Z 22009KT 13/01 A2973 RMK A01 T01330012  RH  044%=      5-min Rain = 0
KME1 111002Z 22008KT 13/01 A2974 RMK A01 T01320011  RH  044%=      5-min Rain = 0
KME1 111003Z 22009KT 13/01 A2974 RMK A01 T01320012  RH  044%=      5-min Rain = 0
KME1 111004Z 21008KT 13/01 A2974 RMK A01 T01320012  RH  044%=      5-min Rain = 0
KME1 111005Z 22007KT 13/01 A2974 RMK A01 T01320012  RH  044%=      5-min Rain = 0
KME1 111006Z 21006KT 13/01 A2974 RMK A01 T01320011  RH  044%=      5-min Rain = 0
KME1 111007Z 20007KT 13/01 A2974 RMK A01 T01310011  RH  044%=      5-min Rain = 0
KME1 111008Z 20007KT 13/01 A2974 RMK A01 T01300011  RH  044%=      5-min Rain = 0
KME1 111009Z 20006KT 13/01 A2974 RMK A01 T01300012  RH  045%=      5-min Rain = 0
KME1 111010Z 20005KT 13/01 A2974 RMK A01 T01290012  RH  045%=      5-min Rain = 0
KME1 111011Z 21007KT 13/01 A2974 RMK A01 T01280011  RH  045%=      5-min Rain = 0
KME1 111012Z 22007KT 13/01 A2974 RMK A01 T01270012  RH  045%=      5-min Rain = 0
KME1 111013Z 21006KT 13/01 A2974 RMK A01 T01270012  RH  045%=      5-min Rain = 0
KME1 111014Z 21006KT 13/01 A2974 RMK A01 T01260012  RH  046%=      5-min Rain = 0
KME1 111015Z 21006KT 13/01 A2974 RMK A01 T01250012  RH  046%=      5-min Rain = 0
KME1 111016Z 21006KT 13/01 A2974 RMK A01 T01250012  RH  046%=      5-min Rain = 0
KME1 111017Z 21007KT 13/01 A2974 RMK A01 T01250013  RH  046%=      5-min Rain = 0
KME1 111018Z 21007KT 12/01 A2974 RMK A01 T01240012  RH  046%=      5-min Rain = 0
KME1 111019Z 21007KT 12/01 A2974 RMK A01 T01240012  RH  046%=      5-min Rain = 0
KME1 111020Z 21006KT 13/01 A2974 RMK A01 T01250013  RH  046%=      5-min Rain = 0
KME1 111021Z 22007KT 12/01 A2974 RMK A01 T01240013  RH  046%=      5-min Rain = 0
KME1 111022Z 21006KT 13/01 A2974 RMK A01 T01250013  RH  046%=      5-min Rain = 0
KME1 111023Z 21006KT 12/01 A2974 RMK A01 T01240012  RH  046%=      5-min Rain = 0
KME1 111024Z 21008KT 12/01 A2974 RMK A01 T01240012  RH  046%=      5-min Rain = 0
KME1 111025Z 21007KT 12/01 A2974 RMK A01 T01240012  RH  046%=      5-min Rain = 0
KME1 111026Z 21007KT 13/01 A2974 RMK A01 T01250013  RH  046%=      5-min Rain = 0
KME1 111027Z 21007KT 13/01 A2974 RMK A01 T01250013  RH  046%=      5-min Rain = 0
KME1 111028Z 21006KT 13/01 A2974 RMK A01 T01250013  RH  046%=      5-min Rain = 0
KME1 111029Z 22007KT 13/01 A2974 RMK A01 T01250013  RH  046%=      5-min Rain = 0
KME1 111030Z 21007KT 13/01 A2974 RMK A01 T01250013  RH  046%=      5-min Rain = 0
KME1 111031Z 21006KT 13/01 A2974 RMK A01 T01250013  RH  046%=      5-min Rain = 0
KME1 111032Z 21006KT 13/01 A2974 RMK A01 T01250013  RH  046%=      5-min Rain = 0
KME1 111033Z 21006KT 12/01 A2974 RMK A01 T01240013  RH  047%=      5-min Rain = 0
KME1 111034Z 21005KT 12/01 A2975 RMK A01 T01240013  RH  047%=      5-min Rain = 0
KME1 111035Z 21006KT 12/01 A2975 RMK A01 T01230012  RH  047%=      5-min Rain = 0
KME1 111036Z 21006KT 12/01 A2975 RMK A01 T01220012  RH  047%=      5-min Rain = 0
KME1 111037Z 21006KT 12/01 A2974 RMK A01 T01210012  RH  047%=      5-min Rain = 0
KME1 111038Z 20006KT 12/01 A2975 RMK A01 T01210012  RH  047%=      5-min Rain = 0
KME1 111039Z 20005KT 12/01 A2975 RMK A01 T01200012  RH  048%=      5-min Rain = 0
KME1 111040Z 20005KT 12/01 A2975 RMK A01 T01190012  RH  048%=      5-min Rain = 0
KME1 111041Z 19005KT 12/01 A2975 RMK A01 T01190013  RH  048%=      5-min Rain = 0
KME1 111042Z 19005KT 12/01 A2975 RMK A01 T01170013  RH  049%=      5-min Rain = 0
KME1 111043Z 18006KT 12/02 A2975 RMK A01 T01150015  RH  050%=      5-min Rain = 0
KME1 111044Z 19006KT 11/02 A2975 RMK A01 T01130015  RH  051%=      5-min Rain = 0
KME1 111045Z 19007KT 11/02 A2975 RMK A01 T01110016  RH  052%=      5-min Rain = 0
KME1 111046Z 19006KT 11/02 A2975 RMK A01 T01100016  RH  052%=      5-min Rain = 0
KME1 111047Z 19007KT 11/02 A2974 RMK A01 T01090017  RH  053%=      5-min Rain = 0
KME1 111048Z 19006KT 11/02 A2974 RMK A01 T01100017  RH  053%=      5-min Rain = 0
KME1 111049Z 19006KT 11/02 A2974 RMK A01 T01090017  RH  053%=      5-min Rain = 0
KME1 111050Z 19006KT 11/02 A2974 RMK A01 T01080017  RH  053%=      5-min Rain = 0
KME1 111051Z 19006KT 11/02 A2974 RMK A01 T01080017  RH  053%=      5-min Rain = 0
KME1 111052Z 19006KT 11/02 A2974 RMK A01 T01080018  RH  054%=      5-min Rain = 0
KME1 111053Z 19006KT 11/02 A2974 RMK A01 T01080018  RH  054%=      5-min Rain = 0
KME1 111054Z 19006KT 11/02 A2974 RMK A01 T01070018  RH  054%=      5-min Rain = 0
KME1 111055Z 19007KT 11/02 A2974 RMK A01 T01060018  RH  054%=      5-min Rain = 0
KME1 111056Z 20007KT 11/02 A2974 RMK A01 T01060018  RH  054%=      5-min Rain = 0
KME1 111057Z 19005KT 11/02 A2974 RMK A01 T01060018  RH  054%=      5-min Rain = 0
KME1 111058Z 19006KT 11/02 A2974 RMK A01 T01070018  RH  054%=      5-min Rain = 0
KME1 111059Z 19006KT 11/02 A2974 RMK A01 T01060018  RH  054%=      5-min Rain = 0
KME1 111100Z 19006KT 11/02 A2974 RMK A01 T01060018  RH  055%=      5-min Rain = 0
KME1 111101Z 19007KT 11/02 A2974 RMK A01 T01060018  RH  055%=      5-min Rain = 0
KME1 111102Z 20007KT 11/02 A2975 RMK A01 T01060018  RH  055%=      5-min Rain = 0
KME1 111103Z 20005KT 11/02 A2975 RMK A01 T01060019  RH  055%=      5-min Rain = 0
KME1 111104Z 20005KT 11/02 A2975 RMK A01 T01060018  RH  055%=      5-min Rain = 0
KME1 111105Z 20006KT 11/02 A2975 RMK A01 T01050018  RH  055%=      5-min Rain = 0
KME1 111106Z 19006KT 10/02 A2975 RMK A01 T01040018  RH  055%=      5-min Rain = 0
KME1 111107Z 20006KT 10/02 A2975 RMK A01 T01040018  RH  055%=      5-min Rain = 0
KME1 111108Z 20006KT 10/02 A2975 RMK A01 T01040018  RH  055%=      5-min Rain = 0
KME1 111109Z 19006KT 10/02 A2975 RMK A01 T01040019  RH  055%=      5-min Rain = 0
KME1 111110Z 20006KT 10/02 A2975 RMK A01 T01040019  RH  055%=      5-min Rain = 0
KME1 111111Z 20006KT 10/02 A2975 RMK A01 T01040018  RH  055%=      5-min Rain = 0
KME1 111112Z 20006KT 10/02 A2975 RMK A01 T01040018  RH  055%=      5-min Rain = 0
KME1 111113Z 20005KT 10/02 A2975 RMK A01 T01040019  RH  056%=      5-min Rain = 0
KME1 111114Z 21006KT 10/02 A2975 RMK A01 T01040019  RH  056%=      5-min Rain = 0
KME1 111115Z 20004KT 10/02 A2975 RMK A01 T01040019  RH  056%=      5-min Rain = 0
KME1 111116Z 21005KT 10/02 A2975 RMK A01 T01040019  RH  056%=      5-min Rain = 0
KME1 111117Z 21005KT 10/02 A2975 RMK A01 T01040020  RH  056%=      5-min Rain = 0
KME1 111118Z 21005KT 10/02 A2975 RMK A01 T01040019  RH  056%=      5-min Rain = 0
KME1 111119Z 21004KT 10/02 A2975 RMK A01 T01030019  RH  056%=      5-min Rain = 0
KME1 111120Z 21004KT 10/02 A2975 RMK A01 T01030019  RH  056%=      5-min Rain = 0
KME1 111121Z 21004KT 10/02 A2975 RMK A01 T01030019  RH  056%=      5-min Rain = 0
KME1 111122Z 21004KT 10/02 A2975 RMK A01 T01030020  RH  056%=      5-min Rain = 0
KME1 111123Z 20005KT 10/02 A2975 RMK A01 T01030020  RH  056%=      5-min Rain = 0
KME1 111124Z 21005KT 10/02 A2975 RMK A01 T01030020  RH  056%=      5-min Rain = 0
KME1 111125Z 19004KT 10/02 A2975 RMK A01 T01030020  RH  056%=      5-min Rain = 0
KME1 111126Z 20005KT 10/02 A2975 RMK A01 T01030020  RH  056%=      5-min Rain = 0
KME1 111127Z 21006KT 10/02 A2975 RMK A01 T01030020  RH  056%=      5-min Rain = 0
KME1 111128Z 23006KT 10/02 A2975 RMK A01 T01030019  RH  056%=      5-min Rain = 0
KME1 111129Z 22005KT 10/02 A2975 RMK A01 T01030019  RH  056%=      5-min Rain = 0
KME1 111130Z 21006KT 10/02 A2975 RMK A01 T01040019  RH  056%=      5-min Rain = 0
KME1 111131Z 22006KT 11/02 A2975 RMK A01 T01050019  RH  056%=      5-min Rain = 0
KME1 111132Z 22005KT 11/02 A2975 RMK A01 T01050020  RH  055%=      5-min Rain = 0
KME1 111133Z 23005KT 11/02 A2975 RMK A01 T01050020  RH  055%=      5-min Rain = 0
KME1 111134Z 23005KT 11/02 A2975 RMK A01 T01050019  RH  055%=      5-min Rain = 0
KME1 111135Z 27007KT 11/02 A2975 RMK A01 T01060019  RH  055%=      5-min Rain = 0
KME1 111136Z 25014KT 11/02 A2975 RMK A01 T01110018  RH  053%=      5-min Rain = 0
KME1 111137Z 26013KT 12/02 A2975 RMK A01 T01240018  RH  048%=      5-min Rain = 0
KME1 111138Z 25010G16KT 13/02 A2975 RMK A01 T01320018  RH  046%=      5-min Rain = 0
KME1 111139Z 26014G19KT 14/02 A2975 RMK A01 T01360017  RH  044%=      5-min Rain = 0
KME1 111140Z 26013KT 14/02 A2975 RMK A01 T01390017  RH  043%=      5-min Rain = 0
KME1 111141Z 26011KT 14/02 A2975 RMK A01 T01410016  RH  043%=      5-min Rain = 0
KME1 111142Z 25015G22KT 14/02 A2975 RMK A01 T01420016  RH  042%=      5-min Rain = 0
KME1 111143Z 25011G18KT 14/02 A2975 RMK A01 T01430015  RH  042%=      5-min Rain = 0
KME1 111144Z 26012KT 14/02 A2975 RMK A01 T01430015  RH  042%=      5-min Rain = 0
KME1 111145Z 26009KT 14/02 A2975 RMK A01 T01440015  RH  041%=      5-min Rain = 0
KME1 111146Z 26014KT 14/02 A2975 RMK A01 T01440015  RH  042%=      5-min Rain = 0
KME1 111147Z 26013KT 14/02 A2975 RMK A01 T01440015  RH  041%=      5-min Rain = 0
KME1 111148Z 26009G14KT 14/01 A2975 RMK A01 T01440014  RH  041%=      5-min Rain = 0
KME1 111149Z 27012KT 14/01 A2975 RMK A01 T01440014  RH  041%=      5-min Rain = 0
KME1 111150Z 27012G18KT 14/01 A2975 RMK A01 T01430014  RH  041%=      5-min Rain = 0
KME1 111151Z 26009KT 14/01 A2975 RMK A01 T01430014  RH  041%=      5-min Rain = 0
KME1 111152Z 27009G15KT 14/01 A2975 RMK A01 T01430014  RH  042%=      5-min Rain = 0
KME1 111153Z 26010KT 14/01 A2975 RMK A01 T01420014  RH  042%=      5-min Rain = 0
KME1 111154Z 27009KT 14/01 A2975 RMK A01 T01420014  RH  042%=      5-min Rain = 0
KME1 111155Z 26007KT 14/01 A2975 RMK A01 T01420014  RH  042%=      5-min Rain = 0
KME1 111156Z 27012G17KT 14/01 A2975 RMK A01 T01410014  RH  042%=      5-min Rain = 0
KME1 111157Z 27015G20KT 14/01 A2975 RMK A01 T01410014  RH  042%=      5-min Rain = 0
KME1 111158Z 27016G23KT 14/01 A2975 RMK A01 T01410014  RH  042%=      5-min Rain = 0
KME1 111159Z 27012KT 14/02 A2975 RMK A01 T01420015  RH  042%=      5-min Rain = 0
KME1 111200Z 27014KT 14/01 A2975 RMK A01 T01420014  RH  042%=      5-min Rain = 0
KME1 111201Z 27011KT 14/01 A2975 RMK A01 T01420014  RH  042%=      5-min Rain = 0
KME1 111202Z 26015KT 14/02 A2975 RMK A01 T01420015  RH  042%=      5-min Rain = 0
KME1 111203Z 27015KT 14/02 A2975 RMK A01 T01420015  RH  042%=      5-min Rain = 0
KME1 111204Z 26011KT 14/02 A2975 RMK A01 T01420015  RH  042%=      5-min Rain = 0
KME1 111205Z 27012G17KT 14/02 A2975 RMK A01 T01410015  RH  042%=      5-min Rain = 0
KME1 111206Z 27015G22KT 14/02 A2975 RMK A01 T01410015  RH  042%=      5-min Rain = 0
KME1 111207Z 28011G16KT 14/02 A2975 RMK A01 T01410015  RH  042%=      5-min Rain = 0
KME1 111208Z 27015G22KT 14/02 A2975 RMK A01 T01410015  RH  042%=      5-min Rain = 0
KME1 111209Z 27012G18KT 14/02 A2975 RMK A01 T01410015  RH  042%=      5-min Rain = 0
KME1 111210Z 27013G18KT 14/02 A2975 RMK A01 T01410015  RH  042%=      5-min Rain = 0
KME1 111211Z 27010G15KT 14/02 A2975 RMK A01 T01410015  RH  042%=      5-min Rain = 0
KME1 111212Z 26013G18KT 14/02 A2975 RMK A01 T01400015  RH  043%=      5-min Rain = 0
KME1 111213Z 27013KT 14/02 A2975 RMK A01 T01400015  RH  043%=      5-min Rain = 0
KME1 111214Z 27015KT 14/02 A2975 RMK A01 T01400016  RH  043%=      5-min Rain = 0
KME1 111215Z 26015KT 14/02 A2975 RMK A01 T01400016  RH  043%=      5-min Rain = 0
KME1 111216Z 26012G17KT 14/02 A2975 RMK A01 T01400016  RH  043%=      5-min Rain = 0
KME1 111217Z 27011KT 14/02 A2975 RMK A01 T01400016  RH  043%=      5-min Rain = 0
KME1 111218Z 27014KT 14/02 A2975 RMK A01 T01390015  RH  043%=      5-min Rain = 0
KME1 111219Z 27014KT 14/02 A2975 RMK A01 T01390016  RH  043%=      5-min Rain = 0
KME1 111220Z 27015KT 14/02 A2975 RMK A01 T01390016  RH  043%=      5-min Rain = 0
KME1 111221Z 27012KT 14/02 A2975 RMK A01 T01390016  RH  043%=      5-min Rain = 0
KME1 111222Z 27011KT 14/02 A2975 RMK A01 T01390016  RH  043%=      5-min Rain = 0
KME1 111223Z 27012KT 14/02 A2976 RMK A01 T01380016  RH  044%=      5-min Rain = 0
KME1 111224Z 27012KT 14/02 A2976 RMK A01 T01370016  RH  044%=      5-min Rain = 0
KME1 111225Z 28010KT 14/02 A2976 RMK A01 T01370017  RH  044%=      5-min Rain = 0
KME1 111226Z 27010G15KT 14/02 A2976 RMK A01 T01370017  RH  044%=      5-min Rain = 0
KME1 111227Z 27015G20KT 14/02 A2976 RMK A01 T01370017  RH  044%=      5-min Rain = 0
KME1 111228Z 27012G17KT 14/02 A2976 RMK A01 T01370017  RH  044%=      5-min Rain = 0
KME1 111229Z 27009G14KT 14/02 A2976 RMK A01 T01380018  RH  044%=      5-min Rain = 0
KME1 111230Z 27010KT 14/02 A2976 RMK A01 T01370018  RH  044%=      5-min Rain = 0
KME1 111231Z 27014G19KT 14/02 A2976 RMK A01 T01370018  RH  044%=      5-min Rain = 0
KME1 111232Z 27017KT 14/02 A2976 RMK A01 T01380019  RH  044%=      5-min Rain = 0
KME1 111233Z 27017KT 14/02 A2976 RMK A01 T01390019  RH  044%=      5-min Rain = 0
KME1 111234Z 27013G19KT 14/02 A2976 RMK A01 T01400019  RH  044%=      5-min Rain = 0
KME1 111235Z 27014KT 14/02 A2976 RMK A01 T01410019  RH  044%=      5-min Rain = 0
KME1 111236Z 27012G20KT 14/02 A2976 RMK A01 T01410020  RH  044%=      5-min Rain = 0
KME1 111237Z 27015KT 14/02 A2976 RMK A01 T01410019  RH  044%=      5-min Rain = 0
KME1 111238Z 26012KT 14/02 A2976 RMK A01 T01410019  RH  044%=      5-min Rain = 0
KME1 111239Z 28013KT 14/02 A2976 RMK A01 T01410019  RH  044%=      5-min Rain = 0
KME1 111240Z 26013KT 14/02 A2976 RMK A01 T01400019  RH  044%=      5-min Rain = 0
KME1 111241Z 26013KT 14/02 A2976 RMK A01 T01400019  RH  044%=      5-min Rain = 0
KME1 111242Z 27008G14KT 14/02 A2976 RMK A01 T01400019  RH  044%=      5-min Rain = 0
KME1 111243Z 27011KT 14/02 A2977 RMK A01 T01390019  RH  044%=      5-min Rain = 0
KME1 111244Z 27012KT 14/02 A2976 RMK A01 T01390019  RH  044%=      5-min Rain = 0
KME1 111245Z 27012KT 14/02 A2977 RMK A01 T01390019  RH  044%=      5-min Rain = 0
KME1 111246Z 27009G16KT 14/02 A2977 RMK A01 T01390019  RH  044%=      5-min Rain = 0
KME1 111247Z 27012KT 14/02 A2977 RMK A01 T01390019  RH  044%=      5-min Rain = 0
KME1 111248Z 27013KT 14/02 A2977 RMK A01 T01390019  RH  044%=      5-min Rain = 0
KME1 111249Z 26013KT 14/02 A2977 RMK A01 T01390019  RH  044%=      5-min Rain = 0
KME1 111250Z 26012KT 14/02 A2977 RMK A01 T01390019  RH  044%=      5-min Rain = 0
KME1 111251Z 27011KT 14/02 A2977 RMK A01 T01390018  RH  044%=      5-min Rain = 0
KME1 111252Z 27010KT 14/02 A2977 RMK A01 T01380018  RH  044%=      5-min Rain = 0
KME1 111253Z 26012KT 14/02 A2977 RMK A01 T01370018  RH  044%=      5-min Rain = 0
KME1 111254Z 26012KT 14/02 A2977 RMK A01 T01380018  RH  044%=      5-min Rain = 0
KME1 111255Z 26012KT 14/02 A2977 RMK A01 T01370018  RH  044%=      5-min Rain = 0
KME1 111256Z 27012KT 14/02 A2977 RMK A01 T01360018  RH  045%=      5-min Rain = 0
KME1 111257Z 26014KT 14/02 A2977 RMK A01 T01360018  RH  045%=      5-min Rain = 0
KME1 111258Z 26013KT 14/02 A2977 RMK A01 T01360018  RH  045%=      5-min Rain = 0
KME1 111259Z 26015G20KT 14/02 A2978 RMK A01 T01370018  RH  044%=      5-min Rain = 0
KME1 111300Z 25013KT 14/02 A2978 RMK A01 T01360018  RH  044%=      5-min Rain = 0
KME1 111301Z 26009KT 14/02 A2978 RMK A01 T01370018  RH  045%=      5-min Rain = 0
KME1 111302Z 26011KT 14/02 A2978 RMK A01 T01350018  RH  045%=      5-min Rain = 0
KME1 111303Z 26011G16KT 13/02 A2978 RMK A01 T01340018  RH  045%=      5-min Rain = 0
KME1 111304Z 26013KT 13/02 A2978 RMK A01 T01340018  RH  045%=      5-min Rain = 0
KME1 111305Z 26010KT 13/02 A2978 RMK A01 T01340017  RH  045%=      5-min Rain = 0
KME1 111306Z 26009KT 13/02 A2978 RMK A01 T01340018  RH  045%=      5-min Rain = 0
KME1 111307Z 26010KT 13/02 A2978 RMK A01 T01320017  RH  046%=      5-min Rain = 0
KME1 111308Z 25012KT 13/02 A2978 RMK A01 T01320017  RH  046%=      5-min Rain = 0
KME1 111309Z 26011KT 13/02 A2978 RMK A01 T01310018  RH  046%=      5-min Rain = 0
KME1 111310Z 26014KT 13/02 A2978 RMK A01 T01310018  RH  046%=      5-min Rain = 0
KME1 111311Z 26011KT 13/02 A2978 RMK A01 T01310017  RH  046%=      5-min Rain = 0
KME1 111312Z 26009G14KT 13/02 A2978 RMK A01 T01320017  RH  046%=      5-min Rain = 0
KME1 111313Z 26011G16KT 13/02 A2978 RMK A01 T01320018  RH  046%=      5-min Rain = 0
KME1 111314Z 27011KT 13/02 A2978 RMK A01 T01310017  RH  046%=      5-min Rain = 0
KME1 111315Z 27010KT 13/02 A2978 RMK A01 T01310018  RH  046%=      5-min Rain = 0
KME1 111316Z 26011KT 13/02 A2979 RMK A01 T01310018  RH  046%=      5-min Rain = 0
KME1 111317Z 26011KT 13/02 A2979 RMK A01 T01300018  RH  046%=      5-min Rain = 0
KME1 111318Z 26011KT 13/02 A2979 RMK A01 T01310018  RH  046%=      5-min Rain = 0
KME1 111319Z 27010KT 13/02 A2979 RMK A01 T01300018  RH  046%=      5-min Rain = 0
KME1 111320Z 27010KT 13/02 A2979 RMK A01 T01300018  RH  046%=      5-min Rain = 0
KME1 111321Z 27010KT 13/02 A2979 RMK A01 T01290017  RH  047%=      5-min Rain = 0
KME1 111322Z 26010KT 13/02 A2979 RMK A01 T01290017  RH  047%=      5-min Rain = 0
KME1 111323Z 26010G16KT 13/02 A2979 RMK A01 T01290017  RH  047%=      5-min Rain = 0
KME1 111324Z 27010KT 13/02 A2979 RMK A01 T01290018  RH  047%=      5-min Rain = 0
KME1 111325Z 27010KT 13/02 A2979 RMK A01 T01280017  RH  047%=      5-min Rain = 0
KME1 111326Z 27011KT 13/02 A2979 RMK A01 T01280018  RH  047%=      5-min Rain = 0
KME1 111327Z 27010KT 13/02 A2979 RMK A01 T01280018  RH  047%=      5-min Rain = 0
KME1 111328Z 27010KT 13/02 A2979 RMK A01 T01290018  RH  047%=      5-min Rain = 0
KME1 111329Z 27011KT 13/02 A2979 RMK A01 T01290018  RH  047%=      5-min Rain = 0
KME1 111330Z 27011KT 13/02 A2979 RMK A01 T01280018  RH  047%=      5-min Rain = 0
KME1 111331Z 27011KT 13/02 A2979 RMK A01 T01280018  RH  047%=      5-min Rain = 0
KME1 111332Z 27011KT 13/02 A298 RMK A01 T01280018  RH  047%=      5-min Rain = 0
KME1 111333Z 27010KT 13/02 A2979 RMK A01 T01280018  RH  047%=      5-min Rain = 0
KME1 111334Z 27008KT 13/02 A298 RMK A01 T01280018  RH  047%=      5-min Rain = 0
KME1 111335Z 27013KT 13/02 A298 RMK A01 T01270018  RH  047%=      5-min Rain = 0
KME1 111336Z 26011KT 13/02 A298 RMK A01 T01270018  RH  047%=      5-min Rain = 0
KME1 111337Z 27010KT 13/02 A298 RMK A01 T01270018  RH  047%=      5-min Rain = 0
KME1 111338Z 27011KT 13/02 A298 RMK A01 T01270018  RH  047%=      5-min Rain = 0
KME1 111339Z 27012KT 13/02 A298 RMK A01 T01270018  RH  047%=      5-min Rain = 0
KME1 111340Z 27009KT 13/02 A298 RMK A01 T01270018  RH  047%=      5-min Rain = 0
KME1 111341Z 26011KT 13/02 A298 RMK A01 T01270018  RH  047%=      5-min Rain = 0
KME1 111342Z 26012KT 13/02 A298 RMK A01 T01260018  RH  048%=      5-min Rain = 0
KME1 111343Z 27008KT 13/02 A298 RMK A01 T01260018  RH  048%=      5-min Rain = 0
KME1 111344Z 27009KT 13/02 A298 RMK A01 T01260018  RH  048%=      5-min Rain = 0
KME1 111345Z 27010KT 13/02 A298 RMK A01 T01250018  RH  048%=      5-min Rain = 0
KME1 111346Z 27010G16KT 13/02 A298 RMK A01 T01250018  RH  048%=      5-min Rain = 0
KME1 111347Z 27010G16KT 13/02 A298 RMK A01 T01250018  RH  048%=      5-min Rain = 0
KME1 111348Z 28011KT 13/02 A298 RMK A01 T01250018  RH  048%=      5-min Rain = 0
KME1 111349Z 28011KT 13/02 A298 RMK A01 T01250018  RH  048%=      5-min Rain = 0
KME1 111350Z 27009KT 13/02 A2981 RMK A01 T01260018  RH  048%=      5-min Rain = 0
KME1 111351Z 27012G17KT 13/02 A2981 RMK A01 T01260018  RH  048%=      5-min Rain = 0
KME1 111352Z 27012KT 13/02 A2981 RMK A01 T01260018  RH  048%=      5-min Rain = 0
KME1 111353Z 28011KT 13/02 A2981 RMK A01 T01270019  RH  047%=      5-min Rain = 0
KME1 111354Z 28014G19KT 13/02 A2981 RMK A01 T01280018  RH  047%=      5-min Rain = 0
KME1 111355Z 28014G19KT 13/02 A2981 RMK A01 T01280018  RH  047%=      5-min Rain = 0
KME1 111356Z 28013G18KT 13/02 A2981 RMK A01 T01290019  RH  047%=      5-min Rain = 0
KME1 111357Z 29012KT 13/02 A2981 RMK A01 T01290019  RH  047%=      5-min Rain = 0
KME1 111358Z 28012KT 13/02 A2981 RMK A01 T01300019  RH  047%=      5-min Rain = 0
KME1 111359Z 28011KT 13/02 A2982 RMK A01 T01290019  RH  047%=      5-min Rain = 0
KME1 111400Z 29010KT 13/02 A2982 RMK A01 T01290019  RH  047%=      5-min Rain = 0
KME1 111401Z 29012G18KT 13/02 A2982 RMK A01 T01280019  RH  047%=      5-min Rain = 0
KME1 111402Z 28011KT 13/02 A2982 RMK A01 T01280018  RH  047%=      5-min Rain = 0
KME1 111403Z 29012G17KT 13/02 A2982 RMK A01 T01290019  RH  047%=      5-min Rain = 0
KME1 111404Z 29011KT 13/02 A2982 RMK A01 T01280019  RH  047%=      5-min Rain = 0
KME1 111405Z 28012KT 13/02 A2982 RMK A01 T01280019  RH  047%=      5-min Rain = 0
KME1 111406Z 29010G16KT 13/02 A2982 RMK A01 T01290019  RH  047%=      5-min Rain = 0
KME1 111407Z 29010KT 13/02 A2982 RMK A01 T01290019  RH  047%=      5-min Rain = 0
KME1 111408Z 29012KT 13/02 A2982 RMK A01 T01280019  RH  047%=      5-min Rain = 0
KME1 111409Z 29011G16KT 13/02 A2982 RMK A01 T01280019  RH  047%=      5-min Rain = 0
KME1 111410Z 29013KT 13/02 A2983 RMK A01 T01280019  RH  047%=      5-min Rain = 0
KME1 111411Z 29014KT 13/02 A2983 RMK A01 T01290019  RH  047%=      5-min Rain = 0
KME1 111412Z 30011G17KT 13/02 A2983 RMK A01 T01290019  RH  047%=      5-min Rain = 0
KME1 111413Z 30011KT 13/02 A2983 RMK A01 T01300019  RH  047%=      5-min Rain = 0
KME1 111414Z 29013G19KT 13/02 A2983 RMK A01 T01290019  RH  047%=      5-min Rain = 0
KME1 111415Z 30016G22KT 13/02 A2983 RMK A01 T01300019  RH  047%=      5-min Rain = 0
KME1 111416Z 30016G23KT 13/02 A2983 RMK A01 T01310019  RH  047%=      5-min Rain = 0
KME1 111417Z 30012KT 13/02 A2983 RMK A01 T01320019  RH  046%=      5-min Rain = 0
KME1 111418Z 31017KT 13/02 A2983 RMK A01 T01330020  RH  046%=      5-min Rain = 0
KME1 111419Z 30010KT 13/02 A2983 RMK A01 T01330020  RH  046%=      5-min Rain = 0
KME1 111420Z 30008KT 13/02 A2983 RMK A01 T01340020  RH  046%=      5-min Rain = 0
KME1 111421Z 31013G18KT 13/02 A2983 RMK A01 T01340020  RH  046%=      5-min Rain = 0
KME1 111422Z 30014G20KT 13/02 A2983 RMK A01 T01340020  RH  046%=      5-min Rain = 0
KME1 111423Z 31011KT 14/02 A2984 RMK A01 T01350020  RH  046%=      5-min Rain = 0
KME1 111424Z 30013KT 14/02 A2984 RMK A01 T01350020  RH  046%=      5-min Rain = 0
KME1 111425Z 30012KT 14/02 A2984 RMK A01 T01350020  RH  046%=      5-min Rain = 0
KME1 111426Z 30008KT 14/02 A2984 RMK A01 T01360020  RH  046%=      5-min Rain = 0
KME1 111427Z 30011KT 14/02 A2984 RMK A01 T01370021  RH  045%=      5-min Rain = 0
KME1 111428Z 30012KT 14/02 A2984 RMK A01 T01370021  RH  045%=      5-min Rain = 0
KME1 111429Z 31014KT 14/02 A2984 RMK A01 T01370021  RH  045%=      5-min Rain = 0
KME1 111430Z 30011KT 14/02 A2984 RMK A01 T01370021  RH  045%=      5-min Rain = 0
KME1 111431Z 30008G13KT 14/02 A2984 RMK A01 T01370021  RH  045%=      5-min Rain = 0
KME1 111432Z 31013G18KT 14/02 A2984 RMK A01 T01370021  RH  045%=      5-min Rain = 0
KME1 111433Z 30016KT 14/02 A2984 RMK A01 T01380021  RH  045%=      5-min Rain = 0
KME1 111434Z 30012KT 14/02 A2984 RMK A01 T01380021  RH  045%=      5-min Rain = 0
KME1 111435Z 30011KT 14/02 A2984 RMK A01 T01380021  RH  045%=      5-min Rain = 0
KME1 111436Z 31013G19KT 14/02 A2985 RMK A01 T01380021  RH  045%=      5-min Rain = 0
KME1 111437Z 32011G16KT 14/02 A2985 RMK A01 T01370021  RH  045%=      5-min Rain = 0
KME1 111438Z 31012KT 14/02 A2985 RMK A01 T01360021  RH  046%=      5-min Rain = 0
KME1 111439Z 30014KT 14/02 A2985 RMK A01 T01350021  RH  046%=      5-min Rain = 0
KME1 111440Z 31013KT 13/02 A2985 RMK A01 T01340021  RH  046%=      5-min Rain = 0
KME1 111441Z 31012KT 13/02 A2985 RMK A01 T01340021  RH  046%=      5-min Rain = 0
KME1 111442Z 31012KT 13/02 A2985 RMK A01 T01340021  RH  046%=      5-min Rain = 0
KME1 111443Z 31010G15KT 13/02 A2986 RMK A01 T01340021  RH  046%=      5-min Rain = 0
KME1 111444Z 31011KT 13/02 A2986 RMK A01 T01330021  RH  046%=      5-min Rain = 0
KME1 111445Z 31010KT 13/02 A2986 RMK A01 T01330021  RH  047%=      5-min Rain = 0
KME1 111446Z 32011KT 13/02 A2986 RMK A01 T01330021  RH  047%=      5-min Rain = 0
KME1 111447Z 31010KT 13/02 A2986 RMK A01 T01330021  RH  047%=      5-min Rain = 0
KME1 111448Z 31013KT 13/02 A2986 RMK A01 T01340021  RH  046%=      5-min Rain = 0
KME1 111449Z 32014KT 13/02 A2986 RMK A01 T01340021  RH  046%=      5-min Rain = 0
KME1 111450Z 32011KT 13/02 A2986 RMK A01 T01340022  RH  046%=      5-min Rain = 0
KME1 111451Z 32010KT 13/02 A2987 RMK A01 T01340022  RH  046%=      5-min Rain = 0
KME1 111452Z 32016G23KT 13/02 A2987 RMK A01 T01340022  RH  047%=      5-min Rain = 0
KME1 111453Z 32019G24KT 13/02 A2987 RMK A01 T01340022  RH  047%=      5-min Rain = 0
KME1 111454Z 32018G23KT 13/02 A2987 RMK A01 T01340022  RH  047%=      5-min Rain = 0
KME1 111455Z 34016KT 13/02 A2987 RMK A01 T01340022  RH  047%=      5-min Rain = 0
KME1 111456Z 34017G23KT 14/02 A2987 RMK A01 T01350023  RH  047%=      5-min Rain = 0
KME1 111457Z 34019G26KT 14/02 A2987 RMK A01 T01360024  RH  047%=      5-min Rain = 0
KME1 111458Z 33015G21KT 14/02 A2987 RMK A01 T01370024  RH  046%=      5-min Rain = 0
KME1 111459Z 34018G24KT 14/02 A2987 RMK A01 T01380024  RH  046%=      5-min Rain = 0
KME1 111500Z 34019KT 14/02 A2987 RMK A01 T01380024  RH  046%=      5-min Rain = 0
KME1 111501Z 34018G23KT 14/02 A2988 RMK A01 T01380023  RH  046%=      5-min Rain = 0
KME1 111502Z 33018KT 14/02 A2988 RMK A01 T01370023  RH  046%=      5-min Rain = 0
KME1 111503Z 33019KT 14/02 A2988 RMK A01 T01370023  RH  046%=      5-min Rain = 0
KME1 111504Z 34018G25KT 14/02 A2988 RMK A01 T01360023  RH  046%=      5-min Rain = 0
KME1 111505Z 34022G27KT 14/02 A2988 RMK A01 T01350023  RH  047%=      5-min Rain = 0
KME1 111506Z 34021G26KT 13/02 A2989 RMK A01 T01330022  RH  047%=      5-min Rain = 0
KME1 111507Z 35019G24KT 13/02 A2989 RMK A01 T01320023  RH  047%=      5-min Rain = 0
KME1 111508Z 34018G27KT 13/02 A2989 RMK A01 T01310023  RH  048%=      5-min Rain = 0
KME1 111509Z 34018KT 13/02 A2989 RMK A01 T01320024  RH  048%=      5-min Rain = 0
KME1 111510Z 34025G30KT 13/02 A2989 RMK A01 T01320023  RH  048%=      5-min Rain = 0
KME1 111511Z 34019KT 13/02 A2989 RMK A01 T01290022  RH  048%=      5-min Rain = 0
KME1 111512Z 34024G31KT 13/02 A299 RMK A01 T01270022  RH  049%=      5-min Rain = 0
KME1 111513Z 34026G33KT 12/02 A299 RMK A01 T01240020  RH  049%=      5-min Rain = 0
KME1 111514Z 34022G28KT 12/02 A299 RMK A01 T01220020  RH  050%=      5-min Rain = 0
KME1 111515Z 34019G25KT 12/02 A299 RMK A01 T01200020  RH  050%=      5-min Rain = 0
KME1 111516Z 34022G27KT 12/02 A299 RMK A01 T01200020  RH  050%=      5-min Rain = 0
KME1 111517Z 33021KT 12/02 A299 RMK A01 T01190019  RH  050%=      5-min Rain = 0
KME1 111518Z 34018KT 12/02 A2991 RMK A01 T01180019  RH  051%=      5-min Rain = 0
KME1 111519Z 34023G29KT 12/02 A2991 RMK A01 T01170018  RH  051%=      5-min Rain = 0
KME1 111520Z 34026KT 12/02 A2991 RMK A01 T01160017  RH  050%=      5-min Rain = 0
KME1 111521Z 34022G27KT 12/02 A2991 RMK A01 T01150016  RH  050%=      5-min Rain = 0
KME1 111522Z 35022G27KT 12/02 A2991 RMK A01 T01150016  RH  051%=      5-min Rain = 0
KME1 111523Z 34016G22KT 11/02 A2992 RMK A01 T01140016  RH  051%=      5-min Rain = 0
KME1 111524Z 34015G22KT 11/02 A2992 RMK A01 T01140017  RH  051%=      5-min Rain = 0
KME1 111525Z 35021KT 11/02 A2992 RMK A01 T01140018  RH  051%=      5-min Rain = 0
KME1 111526Z 34018G24KT 11/02 A2992 RMK A01 T01140017  RH  052%=      5-min Rain = 0
KME1 111527Z 34019KT 11/02 A2992 RMK A01 T01130017  RH  052%=      5-min Rain = 0
KME1 111528Z 34020KT 11/02 A2992 RMK A01 T01120017  RH  052%=      5-min Rain = 0
KME1 111529Z 34016G24KT 11/02 A2992 RMK A01 T01120016  RH  052%=      5-min Rain = 0
KME1 111530Z 34019G24KT 11/02 A2992 RMK A01 T01110016  RH  052%=      5-min Rain = 0
KME1 111531Z 35016KT 11/02 A2993 RMK A01 T01110017  RH  052%=      5-min Rain = 0
KME1 111532Z 34019KT 11/02 A2993 RMK A01 T01110017  RH  052%=      5-min Rain = 0
KME1 111533Z 34018KT 11/02 A2993 RMK A01 T01110017  RH  052%=      5-min Rain = 0
KME1 111534Z 34017KT 11/02 A2993 RMK A01 T01100017  RH  053%=      5-min Rain = 0
KME1 111535Z 34019G24KT 11/02 A2993 RMK A01 T01100017  RH  053%=      5-min Rain = 0
KME1 111536Z 35022G27KT 11/02 A2993 RMK A01 T01090017  RH  053%=      5-min Rain = 0
KME1 111537Z 34015KT 11/02 A2994 RMK A01 T01080018  RH  053%=      5-min Rain = 0
KME1 111538Z 33018KT 11/02 A2994 RMK A01 T01080018  RH  054%=      5-min Rain = 0
KME1 111539Z 33020G25KT 11/02 A2994 RMK A01 T01070017  RH  054%=      5-min Rain = 0
KME1 111540Z 34020G29KT 11/02 A2994 RMK A01 T01060016  RH  054%=      5-min Rain = 0
KME1 111541Z 34020G25KT 11/01 A2994 RMK A01 T01050014  RH  054%=      5-min Rain = 0
KME1 111542Z 35023G29KT 10/01 A2995 RMK A01 T01030012  RH  053%=      5-min Rain = 0
KME1 111543Z 34019KT 10/01 A2995 RMK A01 T01010010  RH  053%=      5-min Rain = 0
KME1 111544Z 34018G23KT 10/01 A2995 RMK A01 T01000009  RH  053%=      5-min Rain = 0
KME1 111545Z 34017G22KT 10/01 A2995 RMK A01 T00990010  RH  054%=      5-min Rain = 0
KME1 111546Z 34023G28KT 10/01 A2995 RMK A01 T00990009  RH  054%=      5-min Rain = 0
KME1 111547Z 35021G27KT 10/01 A2995 RMK A01 T00970007  RH  053%=      5-min Rain = 0
KME1 111548Z 34022G29KT 10/01 A2995 RMK A01 T00970008  RH  054%=      5-min Rain = 0
KME1 111549Z 34024KT 10/01 A2996 RMK A01 T00960007  RH  054%=      5-min Rain = 0
KME1 111550Z 34019G26KT 10/01 A2996 RMK A01 T00950006  RH  054%=      5-min Rain = 0
KME1 111551Z 35019G24KT 10/01 A2996 RMK A01 T00950007  RH  054%=      5-min Rain = 0
KME1 111552Z 35015KT 10/01 A2996 RMK A01 T00950008  RH  054%=      5-min Rain = 0
KME1 111553Z 34017KT 10/01 A2996 RMK A01 T00950007  RH  054%=      5-min Rain = 0
KME1 111554Z 35020G25KT 10/01 A2996 RMK A01 T00950007  RH  054%=      5-min Rain = 0
KME1 111555Z 35020G25KT 10/01 A2996 RMK A01 T00950007  RH  054%=      5-min Rain = 0
KME1 111556Z 34018G23KT 10/01 A2997 RMK A01 T00950007  RH  054%=      5-min Rain = 0
KME1 111557Z 33015G21KT 09/01 A2997 RMK A01 T00940007  RH  055%=      5-min Rain = 0
KME1 111558Z 33023G28KT 10/01 A2997 RMK A01 T00950008  RH  055%=      5-min Rain = 0
KME1 111559Z 33022G28KT 09/01 A2997 RMK A01 T00930007  RH  055%=      5-min Rain = 0
KME1 111600Z 33019G26KT 09/01 A2997 RMK A01 T00920006  RH  055%=      5-min Rain = 0
KME1 111601Z 33018G23KT 09/01 A2998 RMK A01 T00910006  RH  055%=      5-min Rain = 0
KME1 111602Z 33019G25KT 09/01 A2998 RMK A01 T00910006  RH  055%=      5-min Rain = 0
KME1 111603Z 34022G27KT 09/01 A2998 RMK A01 T00910005  RH  055%=      5-min Rain = 0
KME1 111604Z 34024G29KT 09/00 A2998 RMK A01 T00900004  RH  055%=      5-min Rain = 0
KME1 111605Z 34023G29KT 09/00 A2998 RMK A01 T00890003  RH  055%=      5-min Rain = 0
KME1 111606Z 34016KT 09/01 A2998 RMK A01 T00890005  RH  056%=      5-min Rain = 0
KME1 111607Z 34016G21KT 09/01 A2999 RMK A01 T00890005  RH  056%=      5-min Rain = 0
KME1 111608Z 32016KT 09/01 A2999 RMK A01 T00890005  RH  056%=      5-min Rain = 0
KME1 111609Z 33018KT 09/01 A2999 RMK A01 T00890005  RH  056%=      5-min Rain = 0
KME1 111610Z 33021G26KT 09/00 A2999 RMK A01 T00880004  RH  056%=      5-min Rain = 0
KME1 111611Z 33018G24KT 09/00 A2999 RMK A01 T00860004  RH  056%=      5-min Rain = 0
KME1 111612Z 34017KT 08/01 A2999 RMK A01 T00840005  RH  058%=      5-min Rain = 0
KME1 111613Z 33019G24KT 08/01 A2999 RMK A01 T00830006  RH  059%=      5-min Rain = 0
KME1 111614Z 33016G22KT 08/01 A2999 RMK A01 T00820007  RH  059%=      5-min Rain = 0
KME1 111615Z 33019G24KT 08/01 A2999 RMK A01 T00810007  RH  059%=      5-min Rain = 0
KME1 111616Z 33016G22KT 08/01 A30 RMK A01 T00810006  RH  059%=      5-min Rain = 0
KME1 111617Z 33015G20KT 08/01 A30 RMK A01 T00810006  RH  059%=      5-min Rain = 0
KME1 111618Z 33018G24KT 08/01 A30 RMK A01 T00810006  RH  059%=      5-min Rain = 0
KME1 111619Z 33018G25KT 08/01 A30 RMK A01 T00800006  RH  059%=      5-min Rain = 0
KME1 111620Z 34020G26KT 08/01 A3001 RMK A01 T00790005  RH  060%=      5-min Rain = 0
KME1 111621Z 33019G26KT 08/00 A3001 RMK A01 T00780004  RH  059%=      5-min Rain = 0
KME1 111622Z 34017G23KT 08/00 A3001 RMK A01 T00780003  RH  059%=      5-min Rain = 0
KME1 111623Z 34019KT 08/00 A3001 RMK A01 T00780003  RH  059%=      5-min Rain = 0
KME1 111624Z 34017G22KT 08/00 A3001 RMK A01 T00780003  RH  059%=      5-min Rain = 0
KME1 111625Z 33018G24KT 08/00 A3001 RMK A01 T00780003  RH  059%=      5-min Rain = 0
KME1 111626Z 34022KT 08/00 A3001 RMK A01 T00770003  RH  059%=      5-min Rain = 0
KME1 111627Z 33018G24KT 08/00 A3001 RMK A01 T00770003  RH  060%=      5-min Rain = 0
KME1 111628Z 33017KT 08/00 A3002 RMK A01 T00770004  RH  060%=      5-min Rain = 0
KME1 111629Z 33017KT 08/01 A3002 RMK A01 T00770006  RH  061%=      5-min Rain = 0
KME1 111630Z 34019G25KT 08/01 A3002 RMK A01 T00760006  RH  061%=      5-min Rain = 0
KME1 111631Z 34019G24KT 08/01 A3002 RMK A01 T00760006  RH  061%=      5-min Rain = 0
KME1 111632Z 34022G27KT 07/01 A3002 RMK A01 T00740007  RH  062%=      5-min Rain = 0
KME1 111633Z 34022KT 07/01 A3002 RMK A01 T00720007  RH  063%=      5-min Rain = 0
KME1 111634Z 35024KT 07/01 A3002 RMK A01 T00710007  RH  064%=      5-min Rain = 0
KME1 111635Z 34019G24KT 07/01 A3002 RMK A01 T00700008  RH  064%=      5-min Rain = 0
KME1 111636Z 34015KT 07/01 A3003 RMK A01 T00700009  RH  065%=      5-min Rain = 0
KME1 111637Z 34017KT 07/01 A3003 RMK A01 T00700009  RH  065%=      5-min Rain = 0
KME1 111638Z 33017G24KT 07/01 A3003 RMK A01 T00690008  RH  065%=      5-min Rain = 0
KME1 111639Z 33017KT 07/01 A3003 RMK A01 T00690007  RH  065%=      5-min Rain = 0
KME1 111640Z 34017G24KT 07/01 A3004 RMK A01 T00680006  RH  065%=      5-min Rain = 0
KME1 111641Z 34021G27KT 07/01 A3004 RMK A01 T00670006  RH  065%=      5-min Rain = 0
KME1 111642Z 33019G26KT 07/00 A3004 RMK A01 T00660004  RH  065%=      5-min Rain = 0
KME1 111643Z 33019KT 07/00 A3004 RMK A01 T00650004  RH  065%=      5-min Rain = 0
KME1 111644Z 33018G23KT 06/00 A3004 RMK A01 T00630004  RH  065%=      5-min Rain = 0
KME1 111645Z 33019G25KT 06/00 A3004 RMK A01 T00630004  RH  066%=      5-min Rain = 0
KME1 111646Z 34017KT 06/00 A3004 RMK A01 T00620003  RH  066%=      5-min Rain = 0
KME1 111647Z 34019G25KT 06/00 A3005 RMK A01 T00620003  RH  066%=      5-min Rain = 0
KME1 111648Z 34019KT 06/00 A3005 RMK A01 T00620003  RH  066%=      5-min Rain = 0
KME1 111649Z 34016KT 06/00 A3005 RMK A01 T00610003  RH  066%=      5-min Rain = 0
KME1 111650Z 33018KT 06/00 A3005 RMK A01 T00610004  RH  066%=      5-min Rain = 0
KME1 111651Z 33017KT 06/00 A3005 RMK A01 T00610003  RH  066%=      5-min Rain = 0
KME1 111652Z 33017G23KT 06/00 A3005 RMK A01 T00610004  RH  067%=      5-min Rain = 0
KME1 111653Z 33017G22KT 06/00 A3005 RMK A01 T00610003  RH  067%=      5-min Rain = 0
KME1 111654Z 33018KT 06/00 A3005 RMK A01 T00610003  RH  067%=      5-min Rain = 0
KME1 111655Z 34013G18KT 06/00 A3005 RMK A01 T00610004  RH  067%=      5-min Rain = 0
KME1 111656Z 33017KT 06/00 A3005 RMK A01 T00610003  RH  067%=      5-min Rain = 0
KME1 111657Z 33014KT 06/00 A3005 RMK A01 T00610003  RH  066%=      5-min Rain = 0
KME1 111658Z 33018G24KT 06/00 A3005 RMK A01 T00610002  RH  066%=      5-min Rain = 0
KME1 111659Z 33017G22KT 06/00 A3006 RMK A01 T00610001  RH  066%=      5-min Rain = 0
KME1 111700Z 33016KT 06/00 A3006 RMK A01 T00610001  RH  066%=      5-min Rain = 0
KME1 111701Z 33017G23KT 06/00 A3006 RMK A01 T00610001  RH  065%=      5-min Rain = 0
KME1 111702Z 34020KT 06/00 A3006 RMK A01 T00620000  RH  065%=      5-min Rain = 0
KME1 111703Z 35019G25KT 06/M00 A3006 RMK A01 T00621001  RH  064%=      5-min Rain = 0
KME1 111704Z 34017G23KT 06/M00 A3006 RMK A01 T00621002  RH  064%=      5-min Rain = 0
KME1 111705Z 34014G20KT 06/M00 A3006 RMK A01 T00631001  RH  063%=      5-min Rain = 0
KME1 111706Z 34016KT 06/M00 A3006 RMK A01 T00641002  RH  063%=      5-min Rain = 0
KME1 111707Z 34016KT 06/M00 A3006 RMK A01 T00641003  RH  062%=      5-min Rain = 0
KME1 111708Z 35016G22KT 07/M00 A3006 RMK A01 T00651004  RH  061%=      5-min Rain = 0
KME1 111709Z 34015G20KT 07/M01 A3006 RMK A01 T00651005  RH  061%=      5-min Rain = 0
KME1 111710Z 34016KT 07/M01 A3006 RMK A01 T00661006  RH  060%=      5-min Rain = 0
KME1 111711Z 33016KT 07/M01 A3006 RMK A01 T00671006  RH  060%=      5-min Rain = 0
KME1 111712Z 33014G19KT 07/M01 A3006 RMK A01 T00681006  RH  059%=      5-min Rain = 0
KME1 111713Z 34014KT 07/M01 A3006 RMK A01 T00681007  RH  059%=      5-min Rain = 0
KME1 111714Z 34015KT 07/M01 A3006 RMK A01 T00691007  RH  058%=      5-min Rain = 0
KME1 111715Z 34012KT 07/M01 A3006 RMK A01 T00701007  RH  058%=      5-min Rain = 0
KME1 111716Z 34009KT 07/M01 A3006 RMK A01 T00711007  RH  058%=      5-min Rain = 0
KME1 111717Z 34011KT 07/M01 A3006 RMK A01 T00721006  RH  058%=      5-min Rain = 0
KME1 111718Z 33010KT 07/M01 A3006 RMK A01 T00731006  RH  057%=      5-min Rain = 0
KME1 111719Z 33011G17KT 07/M01 A3006 RMK A01 T00741007  RH  056%=      5-min Rain = 0
KME1 111720Z 33016G25KT 08/M01 A3006 RMK A01 T00751008  RH  056%=      5-min Rain = 0
KME1 111721Z 33016G23KT 08/M01 A3006 RMK A01 T00751009  RH  055%=      5-min Rain = 0
KME1 111722Z 33017KT 08/M01 A3006 RMK A01 T00761010  RH  055%=      5-min Rain = 0
KME1 111723Z 32015KT 08/M01 A3006 RMK A01 T00761010  RH  054%=      5-min Rain = 0
KME1 111724Z 34014KT 08/M01 A3006 RMK A01 T00761010  RH  054%=      5-min Rain = 0
KME1 111725Z 34014G21KT 08/M01 A3006 RMK A01 T00771010  RH  054%=      5-min Rain = 0
KME1 111726Z 33015G20KT 08/M01 A3006 RMK A01 T00771011  RH  054%=      5-min Rain = 0
KME1 111727Z 33013KT 08/M01 A3007 RMK A01 T00771010  RH  054%=      5-min Rain = 0
KME1 111728Z 33014G23KT 08/M01 A3006 RMK A01 T00781010  RH  053%=      5-min Rain = 0
KME1 111729Z 32017KT 08/M01 A3006 RMK A01 T00791010  RH  053%=      5-min Rain = 0
KME1 111730Z 33015KT 08/M01 A3007 RMK A01 T00801011  RH  053%=      5-min Rain = 0
KME1 111731Z 33013KT 08/M01 A3007 RMK A01 T00811011  RH  052%=      5-min Rain = 0
KME1 111732Z 33013KT 08/M01 A3007 RMK A01 T00821010  RH  052%=      5-min Rain = 0
KME1 111733Z 33013KT 08/M01 A3007 RMK A01 T00841009  RH  052%=      5-min Rain = 0
KME1 111734Z 33017G23KT 09/M01 A3006 RMK A01 T00861009  RH  051%=      5-min Rain = 0
KME1 111735Z 33015G20KT 09/M01 A3006 RMK A01 T00861011  RH  051%=      5-min Rain = 0
KME1 111736Z 34015KT 09/M01 A3006 RMK A01 T00851011  RH  051%=      5-min Rain = 0
KME1 111737Z 33016KT 09/M01 A3006 RMK A01 T00861010  RH  051%=      5-min Rain = 0
KME1 111738Z 33014KT 09/M01 A3006 RMK A01 T00871010  RH  050%=      5-min Rain = 0
KME1 111739Z 33016G21KT 09/M01 A3006 RMK A01 T00881009  RH  050%=      5-min Rain = 0
KME1 111740Z 32015G21KT 09/M01 A3006 RMK A01 T00901008  RH  050%=      5-min Rain = 0
KME1 111741Z 34016KT 09/M01 A3006 RMK A01 T00941007  RH  049%=      5-min Rain = 0
KME1 111742Z 34012KT 10/M01 A3006 RMK A01 T00951007  RH  049%=      5-min Rain = 0
KME1 111743Z 33013G18KT 10/M01 A3006 RMK A01 T00971007  RH  049%=      5-min Rain = 0
KME1 111744Z 34013KT 10/M01 A3007 RMK A01 T00971007  RH  048%=      5-min Rain = 0
KME1 111745Z 32013KT 10/M01 A3006 RMK A01 T00981006  RH  048%=      5-min Rain = 0
KME1 111746Z 32015KT 10/M01 A3006 RMK A01 T01001005  RH  048%=      5-min Rain = 0
KME1 111747Z 32013KT 10/M00 A3007 RMK A01 T01021004  RH  048%=      5-min Rain = 0
KME1 111748Z 32019G24KT 10/M01 A3007 RMK A01 T01031005  RH  047%=      5-min Rain = 0
KME1 111749Z 33016KT 10/M01 A3007 RMK A01 T01001008  RH  047%=      5-min Rain = 0
KME1 111750Z 32011G17KT 10/M01 A3007 RMK A01 T00981009  RH  047%=      5-min Rain = 0
KME1 111751Z 31017G24KT 10/M01 A3007 RMK A01 T00981009  RH  047%=      5-min Rain = 0
KME1 111752Z 32018G25KT 10/M01 A3007 RMK A01 T00991011  RH  046%=      5-min Rain = 0
KME1 111753Z 32021G26KT 10/M02 A3007 RMK A01 T00971015  RH  046%=      5-min Rain = 0
KME1 111754Z 32020G27KT 09/M02 A3007 RMK A01 T00941017  RH  046%=      5-min Rain = 0
KME1 111755Z 32022G28KT 09/M02 A3007 RMK A01 T00921019  RH  046%=      5-min Rain = 0
KME1 111756Z 32021G28KT 09/M02 A3008 RMK A01 T00901020  RH  046%=      5-min Rain = 0
KME1 111757Z 32020KT 09/M02 A3008 RMK A01 T00891020  RH  046%=      5-min Rain = 0
KME1 111758Z 32018G23KT 09/M02 A3008 RMK A01 T00881020  RH  046%=      5-min Rain = 0
KME1 111759Z 32016G21KT 09/M02 A3008 RMK A01 T00881020  RH  046%=      5-min Rain = 0
KME1 111800Z 32019G28KT 09/M02 A3008 RMK A01 T00881021  RH  046%=      5-min Rain = 0
KME1 111801Z 34016G23KT 09/M02 A3008 RMK A01 T00891021  RH  046%=      5-min Rain = 0
KME1 111802Z 34017KT 09/M02 A3008 RMK A01 T00901021  RH  046%=      5-min Rain = 0
KME1 111803Z 33015G22KT 09/M02 A3008 RMK A01 T00891021  RH  046%=      5-min Rain = 0
KME1 111804Z 33018G24KT 09/M02 A3008 RMK A01 T00901021  RH  045%=      5-min Rain = 0
KME1 111805Z 32019KT 09/M02 A3008 RMK A01 T00901022  RH  045%=      5-min Rain = 0
KME1 111806Z 33020KT 09/M02 A3008 RMK A01 T00891023  RH  045%=      5-min Rain = 0
KME1 111807Z 33017G22KT 09/M02 A3008 RMK A01 T00881024  RH  045%=      5-min Rain = 0
KME1 111808Z 33017G23KT 09/M02 A3008 RMK A01 T00881023  RH  046%=      5-min Rain = 0
KME1 111809Z 33020KT 09/M02 A3008 RMK A01 T00891023  RH  046%=      5-min Rain = 0
KME1 111810Z 33022G27KT 09/M02 A3008 RMK A01 T00881023  RH  045%=      5-min Rain = 0
KME1 111811Z 34023G28KT 09/M02 A3008 RMK A01 T00881024  RH  045%=      5-min Rain = 0
KME1 111812Z 33017KT 09/M02 A3008 RMK A01 T00881024  RH  045%=      5-min Rain = 0
KME1 111813Z 34016G21KT 09/M02 A3008 RMK A01 T00881023  RH  046%=      5-min Rain = 0
KME1 111814Z 33020G27KT 09/M02 A3008 RMK A01 T00881024  RH  045%=      5-min Rain = 0
KME1 111815Z 32022G27KT 09/M02 A3008 RMK A01 T00871024  RH  046%=      5-min Rain = 0
KME1 111816Z 33021G27KT 09/M02 A3008 RMK A01 T00881024  RH  045%=      5-min Rain = 0
KME1 111817Z 33016G22KT 09/M02 A3008 RMK A01 T00881024  RH  045%=      5-min Rain = 0
KME1 111818Z 33018KT 09/M02 A3008 RMK A01 T00921021  RH  045%=      5-min Rain = 0
KME1 111819Z 34016G22KT 09/M02 A3008 RMK A01 T00941021  RH  044%=      5-min Rain = 0
KME1 111820Z 33019G24KT 10/M02 A3008 RMK A01 T00981019  RH  044%=      5-min Rain = 0
KME1 111821Z 34018G23KT 10/M02 A3008 RMK A01 T01001020  RH  043%=      5-min Rain = 0
KME1 111822Z 33022KT 10/M02 A3008 RMK A01 T01001021  RH  043%=      5-min Rain = 0
KME1 111823Z 33020KT 10/M02 A3008 RMK A01 T00981023  RH  043%=      5-min Rain = 0
KME1 111824Z 33017KT 10/M02 A3008 RMK A01 T00971023  RH  043%=      5-min Rain = 0
KME1 111825Z 34014G20KT 10/M02 A3008 RMK A01 T01011019  RH  043%=      5-min Rain = 0
KME1 111826Z 33017G23KT 11/M02 A3007 RMK A01 T01061018  RH  042%=      5-min Rain = 0
KME1 111827Z 34019G24KT 11/M02 A3008 RMK A01 T01071020  RH  041%=      5-min Rain = 0
KME1 111828Z 34022G29KT 11/M02 A3008 RMK A01 T01061020  RH  041%=      5-min Rain = 0
KME1 111829Z 35024KT 10/M02 A3008 RMK A01 T01041021  RH  042%=      5-min Rain = 0
KME1 111830Z 35022G28KT 10/M02 A3008 RMK A01 T01011022  RH  042%=      5-min Rain = 0
KME1 111831Z 34019G25KT 10/M02 A3008 RMK A01 T01011021  RH  042%=      5-min Rain = 0
KME1 111832Z 35019G25KT 10/M02 A3008 RMK A01 T01021021  RH  042%=      5-min Rain = 0
KME1 111833Z 34016KT 10/M02 A3008 RMK A01 T01021021  RH  042%=      5-min Rain = 0
KME1 111834Z 33017KT 10/M02 A3008 RMK A01 T01041020  RH  042%=      5-min Rain = 0
KME1 111835Z 33018G24KT 11/M02 A3008 RMK A01 T01051021  RH  041%=      5-min Rain = 0
KME1 111836Z 34018G25KT 10/M02 A3008 RMK A01 T01041021  RH  042%=      5-min Rain = 0
KME1 111837Z 34019G24KT 10/M02 A3008 RMK A01 T01041021  RH  042%=      5-min Rain = 0
KME1 111838Z 33015KT 11/M02 A3008 RMK A01 T01051020  RH  042%=      5-min Rain = 0
KME1 111839Z 35018G25KT 11/M02 A3008 RMK A01 T01071019  RH  041%=      5-min Rain = 0
KME1 111840Z 36020KT 11/M02 A3008 RMK A01 T01091020  RH  041%=      5-min Rain = 0
KME1 111841Z 34018KT 11/M02 A3008 RMK A01 T01081021  RH  040%=      5-min Rain = 0
KME1 111842Z 34020KT 11/M02 A3008 RMK A01 T01091020  RH  040%=      5-min Rain = 0
KME1 111843Z 32017G22KT 11/M02 A3008 RMK A01 T01081021  RH  040%=      5-min Rain = 0
KME1 111844Z 33019KT 11/M02 A3008 RMK A01 T01081022  RH  040%=      5-min Rain = 0
KME1 111845Z 34017G23KT 11/M02 A3008 RMK A01 T01091022  RH  040%=      5-min Rain = 0
KME1 111846Z 33015KT 11/M02 A3008 RMK A01 T01111021  RH  040%=      5-min Rain = 0
KME1 111847Z 35017KT 11/M02 A3008 RMK A01 T01141018  RH  040%=      5-min Rain = 0
KME1 111848Z 34017KT 12/M02 A3009 RMK A01 T01181018  RH  039%=      5-min Rain = 0
KME1 111849Z 34017KT 12/M02 A3009 RMK A01 T01191019  RH  038%=      5-min Rain = 0
KME1 111850Z 33018G25KT 12/M02 A3009 RMK A01 T01201019  RH  038%=      5-min Rain = 0
KME1 111851Z 34018KT 12/M02 A3009 RMK A01 T01191021  RH  038%=      5-min Rain = 0
KME1 111852Z 34017G23KT 12/M02 A3009 RMK A01 T01151022  RH  038%=      5-min Rain = 0
KME1 111853Z 34024G29KT 11/M02 A3009 RMK A01 T01131023  RH  039%=      5-min Rain = 0
KME1 111854Z 33018G26KT 11/M03 A3009 RMK A01 T01101025  RH  039%=      5-min Rain = 0
KME1 111855Z 33016G22KT 11/M02 A3009 RMK A01 T01121021  RH  039%=      5-min Rain = 0
KME1 111856Z 33022G27KT 12/M02 A3009 RMK A01 T01151022  RH  038%=      5-min Rain = 0
KME1 111857Z 33018G23KT 11/M03 A3009 RMK A01 T01121025  RH  038%=      5-min Rain = 0
KME1 111858Z 32016G22KT 11/M02 A3009 RMK A01 T01091024  RH  039%=      5-min Rain = 0
KME1 111859Z 34015G22KT 11/M02 A3009 RMK A01 T01091024  RH  039%=      5-min Rain = 0
KME1 111900Z 34018G24KT 11/M02 A3009 RMK A01 T01101023  RH  040%=      5-min Rain = 0
KME1 111901Z 33014G20KT 11/M02 A3009 RMK A01 T01111023  RH  039%=      5-min Rain = 0
KME1 111902Z 33020G27KT 11/M02 A3009 RMK A01 T01101023  RH  039%=      5-min Rain = 0
KME1 111903Z 34019KT 10/M03 A3009 RMK A01 T01041028  RH  039%=      5-min Rain = 0
KME1 111904Z 33018G25KT 10/M03 A3009 RMK A01 T01001028  RH  040%=      5-min Rain = 0
KME1 111905Z 33015G20KT 10/M03 A3009 RMK A01 T01001027  RH  041%=      5-min Rain = 0
KME1 111906Z 35020G26KT 10/M03 A3009 RMK A01 T01011025  RH  041%=      5-min Rain = 0
KME1 111907Z 35015G22KT 10/M03 A3009 RMK A01 T01011027  RH  041%=      5-min Rain = 0
KME1 111908Z 34013KT 10/M03 A3009 RMK A01 T01011025  RH  041%=      5-min Rain = 0
KME1 111909Z 34015KT 10/M02 A3009 RMK A01 T01031024  RH  041%=      5-min Rain = 0
KME1 111910Z 34018G24KT 11/M02 A3009 RMK A01 T01051024  RH  040%=      5-min Rain = 0
KME1 111911Z 34020KT 10/M03 A3009 RMK A01 T01041026  RH  040%=      5-min Rain = 0
KME1 111912Z 34017KT 10/M03 A3009 RMK A01 T01021027  RH  040%=      5-min Rain = 0
KME1 111913Z 33014KT 10/M03 A3009 RMK A01 T01021026  RH  041%=      5-min Rain = 0
KME1 111914Z 33014G20KT 10/M02 A3009 RMK A01 T01041024  RH  041%=      5-min Rain = 0
KME1 111915Z 33015G21KT 11/M02 A3009 RMK A01 T01061024  RH  040%=      5-min Rain = 0
KME1 111916Z 32017G23KT 11/M03 A3009 RMK A01 T01071025  RH  040%=      5-min Rain = 0
KME1 111917Z 32017KT 11/M03 A3009 RMK A01 T01061027  RH  039%=      5-min Rain = 0
KME1 111918Z 31018G23KT 10/M03 A3009 RMK A01 T01031028  RH  040%=      5-min Rain = 0
KME1 111919Z 33021KT 10/M03 A3009 RMK A01 T01031028  RH  040%=      5-min Rain = 0
KME1 111920Z 32023G30KT 10/M03 A3009 RMK A01 T01021029  RH  040%=      5-min Rain = 0
KME1 111921Z 32020G25KT 10/M03 A3009 RMK A01 T01021029  RH  040%=      5-min Rain = 0
KME1 111922Z 32020G27KT 10/M03 A3009 RMK A01 T01031029  RH  039%=      5-min Rain = 0
KME1 111923Z 33018KT 11/M03 A3009 RMK A01 T01051029  RH  039%=      5-min Rain = 0
KME1 111924Z 35020G25KT 11/M03 A3009 RMK A01 T01081027  RH  039%=      5-min Rain = 0
KME1 111925Z 34020G29KT 11/M03 A3009 RMK A01 T01091028  RH  038%=      5-min Rain = 0
KME1 111926Z 34021G27KT 11/M03 A3009 RMK A01 T01091030  RH  038%=      5-min Rain = 0
KME1 111927Z 34016KT 11/M03 A3009 RMK A01 T01091030  RH  038%=      5-min Rain = 0
KME1 111928Z 34017KT 11/M03 A3009 RMK A01 T01121028  RH  038%=      5-min Rain = 0
KME1 111929Z 34016G21KT 11/M03 A3009 RMK A01 T01131029  RH  037%=      5-min Rain = 0
KME1 111930Z 35017KT 11/M03 A3009 RMK A01 T01131029  RH  037%=      5-min Rain = 0
KME1 111931Z 33018KT 11/M03 A3009 RMK A01 T01131029  RH  037%=      5-min Rain = 0
KME1 111932Z 34017G23KT 11/M03 A3009 RMK A01 T01141029  RH  037%=      5-min Rain = 0
KME1 111933Z 34019G24KT 11/M03 A3009 RMK A01 T01141029  RH  037%=      5-min Rain = 0
KME1 111934Z 33020G26KT 12/M03 A3009 RMK A01 T01151030  RH  036%=      5-min Rain = 0
KME1 111935Z 33017KT 12/M03 A3009 RMK A01 T01161031  RH  036%=      5-min Rain = 0
KME1 111936Z 34018G27KT 12/M03 A3009 RMK A01 T01151033  RH  035%=      5-min Rain = 0
KME1 111937Z 33020G26KT 11/M04 A3009 RMK A01 T01141035  RH  035%=      5-min Rain = 0
KME1 111938Z 32020G25KT 11/M04 A3009 RMK A01 T01101037  RH  035%=      5-min Rain = 0
KME1 111939Z 32018G23KT 11/M04 A3009 RMK A01 T01091037  RH  036%=      5-min Rain = 0
KME1 111940Z 33018KT 11/M04 A301 RMK A01 T01091037  RH  036%=      5-min Rain = 0
KME1 111941Z 32016G21KT 11/M04 A301 RMK A01 T01091036  RH  036%=      5-min Rain = 0
KME1 111942Z 33017G26KT 11/M04 A301 RMK A01 T01101036  RH  036%=      5-min Rain = 0
KME1 111943Z 33018G23KT 11/M04 A301 RMK A01 T01101036  RH  036%=      5-min Rain = 0
KME1 111944Z 32017G23KT 11/M04 A301 RMK A01 T01101036  RH  036%=      5-min Rain = 0
KME1 111945Z 33022G28KT 11/M04 A301 RMK A01 T01101038  RH  035%=      5-min Rain = 0
KME1 111946Z 33024KT 11/M04 A301 RMK A01 T01071040  RH  035%=      5-min Rain = 0
KME1 111947Z 33022KT 11/M04 A301 RMK A01 T01071040  RH  036%=      5-min Rain = 0
KME1 111948Z 33021G26KT 11/M04 A301 RMK A01 T01061041  RH  035%=      5-min Rain = 0
KME1 111949Z 34023KT 11/M04 A301 RMK A01 T01051041  RH  036%=      5-min Rain = 0
KME1 111950Z 34019KT 11/M04 A301 RMK A01 T01071040  RH  035%=      5-min Rain = 0
KME1 111951Z 34017G24KT 11/M04 A301 RMK A01 T01081040  RH  035%=      5-min Rain = 0
KME1 111952Z 33019KT 11/M04 A301 RMK A01 T01101039  RH  035%=      5-min Rain = 0
KME1 111953Z 34012G18KT 11/M04 A301 RMK A01 T01111041  RH  034%=      5-min Rain = 0
KME1 111954Z 35015KT 11/M04 A301 RMK A01 T01121039  RH  034%=      5-min Rain = 0
KME1 111955Z 34016G22KT 12/M04 A301 RMK A01 T01151040  RH  034%=      5-min Rain = 0
KME1 111956Z 34013KT 12/M04 A301 RMK A01 T01151041  RH  033%=      5-min Rain = 0
KME1 111957Z 34011KT 11/M04 A3009 RMK A01 T01141041  RH  034%=      5-min Rain = 0
KME1 111958Z 35017G22KT 12/M04 A301 RMK A01 T01161039  RH  034%=      5-min Rain = 0
KME1 111959Z 33014G20KT 12/M04 A301 RMK A01 T01171041  RH  033%=      5-min Rain = 0
KME1 112000Z 32015G20KT 12/M04 A3009 RMK A01 T01171041  RH  033%=      5-min Rain = 0
KME1 112001Z 33017KT 12/M04 A3009 RMK A01 T01171043  RH  032%=      5-min Rain = 0
KME1 112002Z 31016G22KT 12/M04 A3009 RMK A01 T01181043  RH  032%=      5-min Rain = 0
KME1 112003Z 33018G25KT 12/M04 A301 RMK A01 T01201043  RH  032%=      5-min Rain = 0
KME1 112004Z 32020KT 12/M05 A301 RMK A01 T01211046  RH  031%=      5-min Rain = 0
KME1 112005Z 31019G24KT 12/M05 A301 RMK A01 T01201050  RH  030%=      5-min Rain = 0
KME1 112006Z 32017G24KT 12/M05 A301 RMK A01 T01181052  RH  030%=      5-min Rain = 0
KME1 112007Z 32016G22KT 12/M05 A301 RMK A01 T01191050  RH  030%=      5-min Rain = 0
KME1 112008Z 31021G26KT 12/M05 A301 RMK A01 T01201051  RH  030%=      5-min Rain = 0
KME1 112009Z 32019G24KT 12/M05 A301 RMK A01 T01181052  RH  030%=      5-min Rain = 0
KME1 112010Z 33021G26KT 12/M05 A301 RMK A01 T01171052  RH  030%=      5-min Rain = 0
KME1 112011Z 33016KT 12/M05 A301 RMK A01 T01161053  RH  030%=      5-min Rain = 0
KME1 112012Z 33016G23KT 12/M05 A301 RMK A01 T01161051  RH  031%=      5-min Rain = 0
KME1 112013Z 33020G27KT 12/M05 A301 RMK A01 T01171052  RH  030%=      5-min Rain = 0
KME1 112014Z 32019G25KT 11/M05 A301 RMK A01 T01141053  RH  031%=      5-min Rain = 0
KME1 112015Z 32020G27KT 11/M05 A301 RMK A01 T01131052  RH  031%=      5-min Rain = 0
KME1 112016Z 32020G27KT 11/M05 A301 RMK A01 T01121052  RH  031%=      5-min Rain = 0
KME1 112017Z 33021KT 11/M05 A3011 RMK A01 T01121051  RH  032%=      5-min Rain = 0
KME1 112018Z 33020KT 11/M05 A3011 RMK A01 T01131051  RH  031%=      5-min Rain = 0
KME1 112019Z 34021KT 11/M05 A3011 RMK A01 T01131050  RH  032%=      5-min Rain = 0
KME1 112020Z 33018G23KT 11/M05 A3011 RMK A01 T01121050  RH  032%=      5-min Rain = 0
KME1 112021Z 33017KT 11/M05 A3011 RMK A01 T01131048  RH  032%=      5-min Rain = 0
KME1 112022Z 33020G30KT 12/M05 A3011 RMK A01 T01151047  RH  032%=      5-min Rain = 0
KME1 112023Z 34023G28KT 12/M05 A3011 RMK A01 T01151048  RH  032%=      5-min Rain = 0
KME1 112024Z 33022KT 11/M05 A3011 RMK A01 T01131049  RH  032%=      5-min Rain = 0
KME1 112025Z 33020G26KT 11/M05 A3011 RMK A01 T01111050  RH  032%=      5-min Rain = 0
KME1 112026Z 33017G22KT 11/M05 A3011 RMK A01 T01101049  RH  032%=      5-min Rain = 0
KME1 112027Z 34019KT 11/M05 A3011 RMK A01 T01121047  RH  033%=      5-min Rain = 0
KME1 112028Z 35014KT 11/M05 A3011 RMK A01 T01141046  RH  032%=      5-min Rain = 0
KME1 112029Z 35018KT 12/M04 A3011 RMK A01 T01181042  RH  032%=      5-min Rain = 0
KME1 112030Z 35015G22KT 12/M04 A3011 RMK A01 T01191044  RH  032%=      5-min Rain = 0
KME1 112031Z 34019G27KT 12/M04 A3011 RMK A01 T01191044  RH  032%=      5-min Rain = 0
KME1 112032Z 34021G29KT 12/M05 A3011 RMK A01 T01201046  RH  031%=      5-min Rain = 0
KME1 112033Z 33024G29KT 12/M05 A3011 RMK A01 T01161050  RH  031%=      5-min Rain = 0
KME1 112034Z 33018KT 11/M05 A3012 RMK A01 T01131052  RH  031%=      5-min Rain = 0
KME1 112035Z 33016G23KT 11/M05 A3011 RMK A01 T01141050  RH  031%=      5-min Rain = 0
KME1 112036Z 33017G26KT 11/M05 A3011 RMK A01 T01141050  RH  031%=      5-min Rain = 0
KME1 112037Z 33017G24KT 12/M05 A3012 RMK A01 T01151049  RH  031%=      5-min Rain = 0
KME1 112038Z 33020G26KT 12/M05 A3012 RMK A01 T01151050  RH  031%=      5-min Rain = 0
KME1 112039Z 32023G29KT 12/M05 A3012 RMK A01 T01151052  RH  031%=      5-min Rain = 0
KME1 112040Z 33020G25KT 11/M05 A3012 RMK A01 T01141053  RH  031%=      5-min Rain = 0
KME1 112041Z 33018KT 12/M05 A3012 RMK A01 T01151052  RH  031%=      5-min Rain = 0
KME1 112042Z 34020KT 12/M05 A3012 RMK A01 T01171053  RH  030%=      5-min Rain = 0
KME1 112043Z 34020G25KT 12/M05 A3012 RMK A01 T01161054  RH  030%=      5-min Rain = 0
KME1 112044Z 34021KT 12/M05 A3011 RMK A01 T01161054  RH  030%=      5-min Rain = 0
KME1 112045Z 34018G24KT 12/M05 A3011 RMK A01 T01151054  RH  030%=      5-min Rain = 0
KME1 112046Z 35018KT 12/M05 A3011 RMK A01 T01161054  RH  030%=      5-min Rain = 0
KME1 112047Z 34022G28KT 12/M06 A3012 RMK A01 T01171055  RH  030%=      5-min Rain = 0
KME1 112048Z 33019KT 12/M06 A3012 RMK A01 T01171057  RH  029%=      5-min Rain = 0
KME1 112049Z 34020G28KT 12/M06 A3012 RMK A01 T01161059  RH  029%=      5-min Rain = 0
KME1 112050Z 35019G25KT 12/M06 A3012 RMK A01 T01151060  RH  029%=      5-min Rain = 0
KME1 112051Z 36019KT 12/M06 A3012 RMK A01 T01171060  RH  029%=      5-min Rain = 0
KME1 112052Z 35021G26KT 12/M06 A3012 RMK A01 T01171060  RH  028%=      5-min Rain = 0
KME1 112053Z 35019G25KT 12/M06 A3012 RMK A01 T01161060  RH  029%=      5-min Rain = 0
KME1 112054Z 34022G27KT 12/M06 A3013 RMK A01 T01171059  RH  029%=      5-min Rain = 0
KME1 112055Z 33020G26KT 12/M06 A3013 RMK A01 T01171062  RH  028%=      5-min Rain = 0
KME1 112056Z 33019G24KT 12/M06 A3013 RMK A01 T01161064  RH  028%=      5-min Rain = 0
KME1 112057Z 34021G27KT 12/M07 A3013 RMK A01 T01161065  RH  027%=      5-min Rain = 0
KME1 112058Z 33021G28KT 12/M07 A3013 RMK A01 T01161066  RH  027%=      5-min Rain = 0
KME1 112059Z 34018G25KT 12/M07 A3013 RMK A01 T01161067  RH  027%=      5-min Rain = 0
KME1 112100Z 35020KT 12/M07 A3013 RMK A01 T01171065  RH  027%=      5-min Rain = 0
KME1 112101Z 35017KT 12/M07 A3013 RMK A01 T01181065  RH  027%=      5-min Rain = 0
KME1 112102Z 34014KT 12/M06 A3013 RMK A01 T01191064  RH  027%=      5-min Rain = 0
KME1 112103Z 33015G20KT 12/M06 A3013 RMK A01 T01211062  RH  027%=      5-min Rain = 0
KME1 112104Z 33019KT 12/M06 A3013 RMK A01 T01221063  RH  027%=      5-min Rain = 0
KME1 112105Z 33017G22KT 12/M07 A3013 RMK A01 T01211065  RH  027%=      5-min Rain = 0
KME1 112106Z 34015KT 12/M07 A3013 RMK A01 T01181066  RH  027%=      5-min Rain = 0
KME1 112107Z 33018G24KT 12/M07 A3013 RMK A01 T01181065  RH  027%=      5-min Rain = 0
KME1 112108Z 34022G28KT 12/M07 A3013 RMK A01 T01191066  RH  027%=      5-min Rain = 0
KME1 112109Z 34022KT 12/M07 A3013 RMK A01 T01181067  RH  027%=      5-min Rain = 0
KME1 112110Z 33022G28KT 12/M07 A3013 RMK A01 T01161068  RH  027%=      5-min Rain = 0
KME1 112111Z 34020G26KT 12/M07 A3013 RMK A01 T01151069  RH  027%=      5-min Rain = 0
KME1 112112Z 33022G30KT 12/M07 A3013 RMK A01 T01151069  RH  027%=      5-min Rain = 0
KME1 112113Z 34024G29KT 12/M07 A3013 RMK A01 T01151069  RH  027%=      5-min Rain = 0
KME1 112114Z 34021KT 12/M07 A3014 RMK A01 T01151069  RH  027%=      5-min Rain = 0
KME1 112115Z 34022G28KT 11/M07 A3014 RMK A01 T01141071  RH  027%=      5-min Rain = 0
KME1 112116Z 34022KT 11/M07 A3013 RMK A01 T01131072  RH  027%=      5-min Rain = 0
KME1 112117Z 33021G27KT 11/M07 A3013 RMK A01 T01121072  RH  027%=      5-min Rain = 0
KME1 112118Z 35021G27KT 11/M07 A3013 RMK A01 T01141071  RH  027%=      5-min Rain = 0
KME1 112119Z 35022G27KT 12/M07 A3013 RMK A01 T01161072  RH  026%=      5-min Rain = 0
KME1 112120Z 33018G23KT 12/M07 A3013 RMK A01 T01171071  RH  026%=      5-min Rain = 0
KME1 112121Z 35018G23KT 12/M07 A3013 RMK A01 T01171071  RH  026%=      5-min Rain = 0
KME1 112122Z 34020KT 12/M07 A3013 RMK A01 T01181071  RH  026%=      5-min Rain = 0
KME1 112123Z 35019G25KT 12/M07 A3014 RMK A01 T01181072  RH  026%=      5-min Rain = 0
KME1 112124Z 34018KT 12/M07 A3014 RMK A01 T01171072  RH  026%=      5-min Rain = 0
KME1 112125Z 35019G24KT 12/M07 A3014 RMK A01 T01171072  RH  026%=      5-min Rain = 0
KME1 112126Z 34021KT 12/M07 A3014 RMK A01 T01171073  RH  026%=      5-min Rain = 0
KME1 112127Z 33018KT 12/M07 A3014 RMK A01 T01161073  RH  026%=      5-min Rain = 0
KME1 112128Z 34015KT 12/M07 A3014 RMK A01 T01171073  RH  026%=      5-min Rain = 0
KME1 112129Z 34015KT 12/M07 A3014 RMK A01 T01171073  RH  026%=      5-min Rain = 0
KME1 112130Z 34014G19KT 12/M07 A3014 RMK A01 T01181072  RH  026%=      5-min Rain = 0
KME1 112131Z 34018G23KT 12/M07 A3014 RMK A01 T01211070  RH  026%=      5-min Rain = 0
KME1 112132Z 34019G25KT 12/M07 A3014 RMK A01 T01221073  RH  025%=      5-min Rain = 0
KME1 112133Z 34019G26KT 12/M07 A3014 RMK A01 T01211074  RH  025%=      5-min Rain = 0
KME1 112134Z 33017KT 12/M08 A3014 RMK A01 T01201076  RH  025%=      5-min Rain = 0
KME1 112135Z 34019G25KT 12/M08 A3014 RMK A01 T01201077  RH  025%=      5-min Rain = 0
KME1 112136Z 34021KT 12/M08 A3014 RMK A01 T01191079  RH  024%=      5-min Rain = 0
KME1 112137Z 34021G27KT 12/M08 A3014 RMK A01 T01181079  RH  024%=      5-min Rain = 0
KME1 112138Z 34021KT 12/M08 A3014 RMK A01 T01181079  RH  025%=      5-min Rain = 0
KME1 112139Z 35020KT 12/M08 A3014 RMK A01 T01181078  RH  025%=      5-min Rain = 0
KME1 112140Z 34019KT 12/M08 A3014 RMK A01 T01181078  RH  025%=      5-min Rain = 0
KME1 112141Z 34014G19KT 12/M08 A3015 RMK A01 T01181078  RH  025%=      5-min Rain = 0
KME1 112142Z 34019KT 12/M08 A3015 RMK A01 T01191077  RH  025%=      5-min Rain = 0
KME1 112143Z 33018KT 12/M08 A3015 RMK A01 T01191078  RH  024%=      5-min Rain = 0
KME1 112144Z 34015KT 12/M08 A3015 RMK A01 T01191078  RH  025%=      5-min Rain = 0
KME1 112145Z 34015G23KT 12/M08 A3015 RMK A01 T01201076  RH  025%=      5-min Rain = 0
KME1 112146Z 33017G28KT 12/M08 A3015 RMK A01 T01211076  RH  024%=      5-min Rain = 0
KME1 112147Z 34023G30KT 12/M08 A3015 RMK A01 T01211078  RH  024%=      5-min Rain = 0
KME1 112148Z 34020G25KT 12/M08 A3015 RMK A01 T01201080  RH  024%=      5-min Rain = 0
KME1 112149Z 35015G22KT 12/M08 A3015 RMK A01 T01191080  RH  024%=      5-min Rain = 0
KME1 112150Z 35017G23KT 12/M08 A3015 RMK A01 T01201079  RH  024%=      5-min Rain = 0
KME1 112151Z 35015G22KT 12/M08 A3015 RMK A01 T01201079  RH  024%=      5-min Rain = 0
KME1 112152Z 34011KT 12/M08 A3015 RMK A01 T01221077  RH  024%=      5-min Rain = 0
KME1 112153Z 34017KT 12/M08 A3015 RMK A01 T01241077  RH  024%=      5-min Rain = 0
KME1 112154Z 34015G21KT 12/M08 A3015 RMK A01 T01231079  RH  024%=      5-min Rain = 0
KME1 112155Z 34018KT 12/M08 A3015 RMK A01 T01221079  RH  024%=      5-min Rain = 0
KME1 112156Z 34018KT 12/M08 A3016 RMK A01 T01201082  RH  024%=      5-min Rain = 0
KME1 112157Z 34016KT 12/M08 A3016 RMK A01 T01191081  RH  024%=      5-min Rain = 0
KME1 112158Z 34016G21KT 12/M08 A3015 RMK A01 T01191081  RH  024%=      5-min Rain = 0
KME1 112159Z 34016G21KT 12/M08 A3016 RMK A01 T01211079  RH  024%=      5-min Rain = 0
KME1 112200Z 34018KT 12/M08 A3015 RMK A01 T01221082  RH  023%=      5-min Rain = 0
KME1 112201Z 34020KT 12/M08 A3015 RMK A01 T01201084  RH  023%=      5-min Rain = 0
KME1 112202Z 34020G25KT 12/M09 A3015 RMK A01 T01201085  RH  023%=      5-min Rain = 0
KME1 112203Z 34018G23KT 12/M09 A3015 RMK A01 T01191086  RH  023%=      5-min Rain = 0
KME1 112204Z 34015KT 12/M09 A3015 RMK A01 T01191085  RH  023%=      5-min Rain = 0
KME1 112205Z 33013KT 12/M08 A3015 RMK A01 T01201084  RH  023%=      5-min Rain = 0
KME1 112206Z 34018KT 12/M08 A3016 RMK A01 T01211083  RH  023%=      5-min Rain = 0
KME1 112207Z 34019G26KT 12/M08 A3016 RMK A01 T01201084  RH  023%=      5-min Rain = 0
KME1 112208Z 33021G26KT 12/M09 A3016 RMK A01 T01201085  RH  023%=      5-min Rain = 0
KME1 112209Z 34017KT 12/M09 A3016 RMK A01 T01191085  RH  023%=      5-min Rain = 0
KME1 112210Z 34016G22KT 12/M09 A3016 RMK A01 T01191085  RH  023%=      5-min Rain = 0
KME1 112211Z 34018G25KT 12/M08 A3016 RMK A01 T01191084  RH  023%=      5-min Rain = 0
KME1 112212Z 33015KT 12/M09 A3016 RMK A01 T01201085  RH  023%=      5-min Rain = 0
KME1 112213Z 34016G21KT 12/M09 A3016 RMK A01 T01211085  RH  023%=      5-min Rain = 0
KME1 112214Z 35017G22KT 12/M09 A3016 RMK A01 T01211086  RH  023%=      5-min Rain = 0
KME1 112215Z 34018G24KT 12/M09 A3016 RMK A01 T01211090  RH  022%=      5-min Rain = 0
KME1 112216Z 34019KT 12/M09 A3016 RMK A01 T01211091  RH  022%=      5-min Rain = 0
KME1 112217Z 35020KT 12/M09 A3016 RMK A01 T01201092  RH  022%=      5-min Rain = 0
KME1 112218Z 36019KT 12/M09 A3016 RMK A01 T01211092  RH  022%=      5-min Rain = 0
KME1 112219Z 36022KT 12/M09 A3017 RMK A01 T01201094  RH  022%=      5-min Rain = 0
KME1 112220Z 35020G25KT 12/M09 A3016 RMK A01 T01201094  RH  021%=      5-min Rain = 0
KME1 112221Z 35018G23KT 12/M09 A3016 RMK A01 T01191094  RH  022%=      5-min Rain = 0
KME1 112222Z 35020KT 12/M09 A3017 RMK A01 T01201093  RH  022%=      5-min Rain = 0
KME1 112223Z 35018G25KT 12/M09 A3017 RMK A01 T01201092  RH  022%=      5-min Rain = 0
KME1 112224Z 35019KT 12/M09 A3017 RMK A01 T01211092  RH  022%=      5-min Rain = 0
KME1 112225Z 34015KT 12/M09 A3017 RMK A01 T01211092  RH  022%=      5-min Rain = 0
KME1 112226Z 34018G23KT 12/M09 A3017 RMK A01 T01211091  RH  022%=      5-min Rain = 0
KME1 112227Z 33019KT 12/M09 A3017 RMK A01 T01211091  RH  022%=      5-min Rain = 0
KME1 112228Z 34021KT 12/M09 A3017 RMK A01 T01211092  RH  022%=      5-min Rain = 0
KME1 112229Z 33019G24KT 12/M09 A3017 RMK A01 T01201094  RH  021%=      5-min Rain = 0
KME1 112230Z 33019KT 12/M10 A3017 RMK A01 T01201095  RH  021%=      5-min Rain = 0
KME1 112231Z 35017G22KT 12/M10 A3017 RMK A01 T01201095  RH  021%=      5-min Rain = 0
KME1 112232Z 35017KT 12/M10 A3017 RMK A01 T01191096  RH  021%=      5-min Rain = 0
KME1 112233Z 34016KT 12/M10 A3017 RMK A01 T01201096  RH  021%=      5-min Rain = 0
KME1 112234Z 34015G22KT 12/M10 A3017 RMK A01 T01191097  RH  021%=      5-min Rain = 0
KME1 112235Z 35018KT 12/M10 A3017 RMK A01 T01191096  RH  021%=      5-min Rain = 0
KME1 112236Z 35017G22KT 12/M10 A3017 RMK A01 T01191096  RH  021%=      5-min Rain = 0
KME1 112237Z 34017G24KT 12/M10 A3017 RMK A01 T01181097  RH  021%=      5-min Rain = 0
KME1 112238Z 34015G21KT 12/M10 A3017 RMK A01 T01181096  RH  021%=      5-min Rain = 0
KME1 112239Z 33020G26KT 12/M10 A3017 RMK A01 T01181096  RH  021%=      5-min Rain = 0
KME1 112240Z 33020KT 12/M10 A3017 RMK A01 T01181097  RH  021%=      5-min Rain = 0
KME1 112241Z 34020KT 12/M10 A3017 RMK A01 T01171098  RH  021%=      5-min Rain = 0
KME1 112242Z 34018G23KT 12/M10 A3018 RMK A01 T01161098  RH  021%=      5-min Rain = 0
KME1 112243Z 33016KT 12/M10 A3018 RMK A01 T01161097  RH  021%=      5-min Rain = 0
KME1 112244Z 34017KT 12/M10 A3018 RMK A01 T01161098  RH  021%=      5-min Rain = 0
KME1 112245Z 34015KT 12/M10 A3018 RMK A01 T01161097  RH  022%=      5-min Rain = 0
KME1 112246Z 33012G18KT 12/M10 A3018 RMK A01 T01151097  RH  022%=      5-min Rain = 0
KME1 112247Z 33016G21KT 12/M10 A3018 RMK A01 T01161096  RH  022%=      5-min Rain = 0
KME1 112248Z 34018G23KT 12/M10 A3018 RMK A01 T01161097  RH  021%=      5-min Rain = 0
KME1 112249Z 33016G21KT 12/M10 A3018 RMK A01 T01161098  RH  021%=      5-min Rain = 0
KME1 112250Z 33016KT 12/M10 A3018 RMK A01 T01151098  RH  021%=      5-min Rain = 0
KME1 112251Z 34019KT 12/M10 A3018 RMK A01 T01151098  RH  022%=      5-min Rain = 0
KME1 112252Z 34014KT 12/M10 A3018 RMK A01 T01151098  RH  021%=      5-min Rain = 0
KME1 112253Z 34018KT 12/M10 A3018 RMK A01 T01151098  RH  022%=      5-min Rain = 0
KME1 112254Z 34017KT 12/M10 A3018 RMK A01 T01151099  RH  021%=      5-min Rain = 0
KME1 112255Z 33017KT 12/M10 A3018 RMK A01 T01151099  RH  021%=      5-min Rain = 0
KME1 112256Z 34016KT 12/M10 A3018 RMK A01 T01151100  RH  021%=      5-min Rain = 0
KME1 112257Z 35020KT 12/M10 A3019 RMK A01 T01151100  RH  021%=      5-min Rain = 0
KME1 112258Z 34018KT 12/M10 A3019 RMK A01 T01151101  RH  021%=      5-min Rain = 0
KME1 112259Z 33020G25KT 12/M10 A3019 RMK A01 T01151101  RH  021%=      5-min Rain = 0
KME1 112300Z 34018KT 11/M10 A3019 RMK A01 T01141101  RH  021%=      5-min Rain = 0
KME1 112301Z 33018G23KT 11/M10 A3019 RMK A01 T01131102  RH  021%=      5-min Rain = 0
KME1 112302Z 33019KT 11/M10 A3019 RMK A01 T01131101  RH  021%=      5-min Rain = 0
KME1 112303Z 34013G19KT 11/M10 A3019 RMK A01 T01131101  RH  021%=      5-min Rain = 0
KME1 112304Z 34013KT 11/M10 A3019 RMK A01 T01121101  RH  021%=      5-min Rain = 0
KME1 112305Z 34019KT 11/M10 A3019 RMK A01 T01121101  RH  021%=      5-min Rain = 0
KME1 112306Z 34019KT 11/M10 A3019 RMK A01 T01121101  RH  021%=      5-min Rain = 0
KME1 112307Z 34013KT 11/M10 A3019 RMK A01 T01121100  RH  021%=      5-min Rain = 0
KME1 112308Z 33015G22KT 11/M10 A3019 RMK A01 T01121100  RH  022%=      5-min Rain = 0
KME1 112309Z 34016KT 11/M10 A3019 RMK A01 T01121101  RH  021%=      5-min Rain = 0
KME1 112310Z 33015KT 11/M10 A3019 RMK A01 T01121101  RH  021%=      5-min Rain = 0
KME1 112311Z 34014G20KT 11/M10 A3019 RMK A01 T01121101  RH  021%=      5-min Rain = 0
KME1 112312Z 34014KT 11/M10 A3019 RMK A01 T01121102  RH  021%=      5-min Rain = 0
KME1 112313Z 34009KT 11/M10 A3019 RMK A01 T01121101  RH  021%=      5-min Rain = 0
KME1 112314Z 34012KT 11/M10 A3019 RMK A01 T01111101  RH  022%=      5-min Rain = 0
KME1 112315Z 35014G20KT 11/M10 A3019 RMK A01 T01111100  RH  022%=      5-min Rain = 0
KME1 112316Z 34015KT 11/M10 A3019 RMK A01 T01111101  RH  022%=      5-min Rain = 0
KME1 112317Z 35013KT 11/M10 A3019 RMK A01 T01111101  RH  022%=      5-min Rain = 0
KME1 112318Z 35015G21KT 11/M10 A3019 RMK A01 T01111101  RH  022%=      5-min Rain = 0
KME1 112319Z 35016G22KT 11/M10 A3019 RMK A01 T01111103  RH  021%=      5-min Rain = 0
KME1 112320Z 35019KT 11/M11 A3019 RMK A01 T01111106  RH  021%=      5-min Rain = 0
KME1 112321Z 34016KT 11/M11 A3019 RMK A01 T01111107  RH  021%=      5-min Rain = 0
KME1 112322Z 34014KT 11/M11 A3019 RMK A01 T01101107  RH  021%=      5-min Rain = 0
KME1 112323Z 34016G21KT 11/M11 A3019 RMK A01 T01101106  RH  021%=      5-min Rain = 0
KME1 112324Z 33016KT 11/M11 A3019 RMK A01 T01091106  RH  021%=      5-min Rain = 0
KME1 112325Z 32017G22KT 11/M11 A3019 RMK A01 T01091106  RH  021%=      5-min Rain = 0
KME1 112326Z 33018G25KT 11/M11 A3019 RMK A01 T01081106  RH  021%=      5-min Rain = 0
KME1 112327Z 34019G24KT 11/M11 A3019 RMK A01 T01081105  RH  021%=      5-min Rain = 0
KME1 112328Z 33017G22KT 11/M11 A3019 RMK A01 T01071106  RH  021%=      5-min Rain = 0
KME1 112329Z 33015KT 11/M11 A3019 RMK A01 T01071105  RH  021%=      5-min Rain = 0
KME1 112330Z 33012KT 11/M11 A302 RMK A01 T01061105  RH  022%=      5-min Rain = 0
KME1 112331Z 34015G20KT 11/M11 A302 RMK A01 T01061105  RH  022%=      5-min Rain = 0
KME1 112332Z 33016KT 11/M11 A302 RMK A01 T01051105  RH  022%=      5-min Rain = 0
KME1 112333Z 34016KT 11/M10 A302 RMK A01 T01061104  RH  022%=      5-min Rain = 0
KME1 112334Z 34015KT 11/M10 A302 RMK A01 T01051104  RH  022%=      5-min Rain = 0
KME1 112335Z 34016G22KT 11/M10 A302 RMK A01 T01051104  RH  022%=      5-min Rain = 0
KME1 112336Z 34018G23KT 11/M10 A302 RMK A01 T01051104  RH  022%=      5-min Rain = 0
KME1 112337Z 33014G20KT 10/M10 A302 RMK A01 T01041104  RH  022%=      5-min Rain = 0
KME1 112338Z 34016KT 10/M10 A302 RMK A01 T01041103  RH  022%=      5-min Rain = 0
KME1 112339Z 34016G23KT 10/M10 A302 RMK A01 T01041103  RH  022%=      5-min Rain = 0
KME1 112340Z 34016KT 10/M10 A302 RMK A01 T01031104  RH  022%=      5-min Rain = 0
KME1 112341Z 34016G21KT 10/M11 A302 RMK A01 T01031105  RH  022%=      5-min Rain = 0
KME1 112342Z 34015KT 10/M11 A302 RMK A01 T01031105  RH  022%=      5-min Rain = 0
KME1 112343Z 34013KT 10/M10 A302 RMK A01 T01031104  RH  022%=      5-min Rain = 0
KME1 112344Z 34016KT 10/M10 A302 RMK A01 T01021104  RH  022%=      5-min Rain = 0
KME1 112345Z 34018KT 10/M11 A3021 RMK A01 T01021105  RH  022%=      5-min Rain = 0
KME1 112346Z 34017KT 10/M11 A3021 RMK A01 T01021106  RH  022%=      5-min Rain = 0
KME1 112347Z 34016KT 10/M11 A3021 RMK A01 T01021106  RH  022%=      5-min Rain = 0
KME1 112348Z 34016G22KT 10/M11 A3021 RMK A01 T01011107  RH  022%=      5-min Rain = 0
KME1 112349Z 34016KT 10/M11 A3021 RMK A01 T01011107  RH  022%=      5-min Rain = 0
KME1 112350Z 34014KT 10/M11 A3021 RMK A01 T01001107  RH  022%=      5-min Rain = 0
KME1 112351Z 34016KT 10/M11 A3021 RMK A01 T00991108  RH  022%=      5-min Rain = 0
KME1 112352Z 35016G21KT 10/M11 A3021 RMK A01 T00991108  RH  022%=      5-min Rain = 0
KME1 112353Z 35015G20KT 10/M11 A3021 RMK A01 T00991108  RH  022%=      5-min Rain = 0
KME1 112354Z 35015KT 10/M11 A3021 RMK A01 T00981109  RH  022%=      5-min Rain = 0
KME1 112355Z 35016G21KT 10/M11 A3021 RMK A01 T00971110  RH  022%=      5-min Rain = 0
KME1 112356Z 35016G21KT 10/M11 A3021 RMK A01 T00981110  RH  022%=      5-min Rain = 0
KME1 112357Z 35016KT 10/M11 A3021 RMK A01 T00971111  RH  022%=      5-min Rain = 0
KME1 112358Z 00016KT 10/M11 A3021 RMK A01 T00971111  RH  022%=      5-min Rain = 0
KME1 112359Z 36015KT 10/M11 A3021 RMK A01 T00971111  RH  022%=      5-min Rain = 0
KME1 120000Z 36013KT 10/M11 A3022 RMK A01 T00951111  RH  022%=      5-min Rain = 0
KME1 120001Z 36013KT 09/M11 A3022 RMK A01 T00941111  RH  022%=      5-min Rain = 0
KME1 120002Z 36013KT 09/M11 A3022 RMK A01 T00931112  RH  022%=      5-min Rain = 0
KME1 120003Z 35015KT 09/M11 A3022 RMK A01 T00921112  RH  022%=      5-min Rain = 0
KME1 120004Z 35013KT 09/M11 A3022 RMK A01 T00921112  RH  022%=      5-min Rain = 0
KME1 120005Z 36014KT 09/M11 A3022 RMK A01 T00921112  RH  022%=      5-min Rain = 0
KME1 120006Z 36012G17KT 09/M11 A3022 RMK A01 T00921112  RH  022%=      5-min Rain = 0
KME1 120007Z 36014KT 09/M11 A3022 RMK A01 T00911112  RH  023%=      5-min Rain = 0
KME1 120008Z 00014KT 09/M11 A3022 RMK A01 T00901113  RH  023%=      5-min Rain = 0
KME1 120009Z 00011KT 09/M11 A3022 RMK A01 T00901112  RH  023%=      5-min Rain = 0
KME1 120010Z 36014KT 09/M11 A3022 RMK A01 T00901112  RH  023%=      5-min Rain = 0
KME1 120011Z 35012KT 09/M11 A3022 RMK A01 T00901112  RH  023%=      5-min Rain = 0
KME1 120012Z 35012KT 09/M11 A3022 RMK A01 T00891112  RH  023%=      5-min Rain = 0
KME1 120013Z 35011KT 09/M11 A3022 RMK A01 T00881112  RH  023%=      5-min Rain = 0
KME1 120014Z 35011KT 09/M11 A3022 RMK A01 T00871112  RH  023%=      5-min Rain = 0
KME1 120015Z 36010KT 09/M11 A3022 RMK A01 T00861112  RH  023%=      5-min Rain = 0
KME1 120016Z 35010KT 09/M11 A3022 RMK A01 T00851112  RH  024%=      5-min Rain = 0
KME1 120017Z 35011KT 08/M11 A3022 RMK A01 T00841111  RH  024%=      5-min Rain = 0
KME1 120018Z 36010KT 08/M11 A3022 RMK A01 T00841111  RH  024%=      5-min Rain = 0
KME1 120019Z 36010KT 08/M11 A3023 RMK A01 T00831111  RH  024%=      5-min Rain = 0
KME1 120020Z 35010KT 08/M11 A3023 RMK A01 T00821111  RH  024%=      5-min Rain = 0
KME1 120021Z 36010KT 08/M11 A3023 RMK A01 T00821111  RH  024%=      5-min Rain = 0
KME1 120022Z 35009KT 08/M11 A3023 RMK A01 T00811110  RH  024%=      5-min Rain = 0
KME1 120023Z 36010KT 08/M11 A3023 RMK A01 T00801110  RH  025%=      5-min Rain = 0
KME1 120024Z 36010KT 08/M11 A3023 RMK A01 T00791110  RH  025%=      5-min Rain = 0
KME1 120025Z 36009KT 08/M11 A3023 RMK A01 T00781110  RH  025%=      5-min Rain = 0
KME1 120026Z 36009KT 08/M11 A3023 RMK A01 T00781110  RH  025%=      5-min Rain = 0
KME1 120027Z 36009KT 08/M11 A3023 RMK A01 T00771110  RH  025%=      5-min Rain = 0
KME1 120028Z 36009KT 08/M11 A3023 RMK A01 T00771109  RH  025%=      5-min Rain = 0
KME1 120029Z 36008KT 08/M11 A3023 RMK A01 T00761109  RH  026%=      5-min Rain = 0
KME1 120030Z 36009KT 08/M11 A3023 RMK A01 T00751110  RH  026%=      5-min Rain = 0
KME1 120031Z 00009KT 07/M11 A3023 RMK A01 T00741110  RH  026%=      5-min Rain = 0
KME1 120032Z 01007KT 07/M11 A3023 RMK A01 T00741109  RH  026%=      5-min Rain = 0
KME1 120033Z 36008KT 07/M11 A3023 RMK A01 T00731109  RH  026%=      5-min Rain = 0
KME1 120034Z 00008KT 07/M11 A3023 RMK A01 T00721109  RH  026%=      5-min Rain = 0
KME1 120035Z 36007KT 07/M11 A3023 RMK A01 T00711110  RH  026%=      5-min Rain = 0
KME1 120036Z 35008KT 07/M11 A3024 RMK A01 T00701110  RH  027%=      5-min Rain = 0
KME1 120037Z 36008KT 07/M11 A3024 RMK A01 T00691109  RH  027%=      5-min Rain = 0
KME1 120038Z 00008KT 07/M11 A3024 RMK A01 T00701109  RH  027%=      5-min Rain = 0
KME1 120039Z 36008KT 07/M11 A3023 RMK A01 T00691109  RH  027%=      5-min Rain = 0
KME1 120040Z 36009KT 07/M11 A3024 RMK A01 T00681109  RH  027%=      5-min Rain = 0
KME1 120041Z 36008KT 07/M11 A3023 RMK A01 T00671108  RH  027%=      5-min Rain = 0
KME1 120042Z 00008KT 07/M11 A3023 RMK A01 T00661109  RH  027%=      5-min Rain = 0
KME1 120043Z 00008KT 07/M11 A3023 RMK A01 T00651109  RH  028%=      5-min Rain = 0
KME1 120044Z 36008KT 07/M11 A3023 RMK A01 T00651109  RH  028%=      5-min Rain = 0
KME1 120045Z 00008KT 06/M11 A3023 RMK A01 T00641109  RH  028%=      5-min Rain = 0
KME1 120046Z 00008KT 06/M11 A3023 RMK A01 T00631108  RH  028%=      5-min Rain = 0
KME1 120047Z 00008KT 06/M11 A3023 RMK A01 T00621109  RH  028%=      5-min Rain = 0
KME1 120048Z 00008KT 06/M11 A3023 RMK A01 T00621108  RH  028%=      5-min Rain = 0
KME1 120049Z 00007KT 06/M11 A3023 RMK A01 T00611108  RH  028%=      5-min Rain = 0
KME1 120050Z 00007KT 06/M11 A3023 RMK A01 T00601109  RH  029%=      5-min Rain = 0
KME1 120051Z 00008KT 06/M11 A3023 RMK A01 T00601108  RH  029%=      5-min Rain = 0
KME1 120052Z 36007KT 06/M11 A3023 RMK A01 T00601108  RH  029%=      5-min Rain = 0
KME1 120053Z 36007KT 06/M11 A3024 RMK A01 T00581109  RH  029%=      5-min Rain = 0
KME1 120054Z 36007KT 06/M11 A3024 RMK A01 T00571109  RH  029%=      5-min Rain = 0
KME1 120055Z 36007KT 06/M11 A3024 RMK A01 T00561108  RH  029%=      5-min Rain = 0
KME1 120056Z 36007KT 06/M11 A3024 RMK A01 T00551108  RH  030%=      5-min Rain = 0
KME1 120057Z 35007KT 05/M11 A3024 RMK A01 T00541108  RH  030%=      5-min Rain = 0
KME1 120058Z 35007KT 05/M11 A3024 RMK A01 T00531108  RH  030%=      5-min Rain = 0
KME1 120059Z 35007KT 05/M11 A3024 RMK A01 T00511109  RH  031%=      5-min Rain = 0
KME1 120100Z 35006KT 05/M11 A3024 RMK A01 T00501108  RH  031%=      5-min Rain = 0
KME1 120101Z 35007KT 05/M11 A3024 RMK A01 T00481109  RH  031%=      5-min Rain = 0
KME1 120102Z 35007KT 05/M11 A3024 RMK A01 T00481108  RH  031%=      5-min Rain = 0
KME1 120103Z 35007KT 05/M11 A3024 RMK A01 T00471108  RH  032%=      5-min Rain = 0
KME1 120104Z 35007KT 05/M11 A3024 RMK A01 T00461108  RH  032%=      5-min Rain = 0
KME1 120105Z 35007KT 05/M11 A3024 RMK A01 T00461107  RH  032%=      5-min Rain = 0
KME1 120106Z 35007KT 05/M11 A3024 RMK A01 T00451107  RH  032%=      5-min Rain = 0
KME1 120107Z 35006KT 05/M11 A3024 RMK A01 T00451107  RH  032%=      5-min Rain = 0
KME1 120108Z 34006KT 05/M11 A3024 RMK A01 T00461107  RH  032%=      5-min Rain = 0
KME1 120109Z 34006KT 05/M11 A3024 RMK A01 T00451107  RH  032%=      5-min Rain = 0
KME1 120110Z 34006KT 05/M11 A3024 RMK A01 T00451107  RH  032%=      5-min Rain = 0
KME1 120111Z 34006KT 05/M11 A3024 RMK A01 T00451107  RH  032%=      5-min Rain = 0
KME1 120112Z 34006KT 05/M11 A3024 RMK A01 T00451107  RH  032%=      5-min Rain = 0
KME1 120113Z 34006KT 05/M11 A3024 RMK A01 T00451106  RH  032%=      5-min Rain = 0
KME1 120114Z 34006KT 05/M11 A3024 RMK A01 T00451106  RH  032%=      5-min Rain = 0
KME1 120115Z 34006KT 05/M11 A3024 RMK A01 T00451106  RH  032%=      5-min Rain = 0
KME1 120116Z 34006KT 04/M11 A3024 RMK A01 T00441106  RH  033%=      5-min Rain = 0
KME1 120117Z 34006KT 04/M11 A3024 RMK A01 T00431107  RH  033%=      5-min Rain = 0
KME1 120118Z 35006KT 04/M11 A3024 RMK A01 T00431107  RH  033%=      5-min Rain = 0
KME1 120119Z 35006KT 04/M11 A3024 RMK A01 T00421107  RH  033%=      5-min Rain = 0
KME1 120120Z 34006KT 04/M11 A3024 RMK A01 T00421107  RH  033%=      5-min Rain = 0
KME1 120121Z 35007KT 04/M11 A3024 RMK A01 T00411106  RH  033%=      5-min Rain = 0
KME1 120122Z 34007KT 04/M11 A3024 RMK A01 T00411106  RH  033%=      5-min Rain = 0
KME1 120123Z 35007KT 04/M11 A3024 RMK A01 T00401106  RH  034%=      5-min Rain = 0
KME1 120124Z 35007KT 04/M11 A3024 RMK A01 T00411106  RH  034%=      5-min Rain = 0
KME1 120125Z 35007KT 04/M11 A3024 RMK A01 T00411106  RH  034%=      5-min Rain = 0
KME1 120126Z 34007KT 04/M11 A3024 RMK A01 T00401105  RH  034%=      5-min Rain = 0
KME1 120127Z 35007KT 04/M11 A3024 RMK A01 T00401105  RH  034%=      5-min Rain = 0
KME1 120128Z 35007KT 04/M11 A3024 RMK A01 T00411105  RH  034%=      5-min Rain = 0
KME1 120129Z 34007KT 04/M11 A3025 RMK A01 T00411105  RH  034%=      5-min Rain = 0
KME1 120130Z 35007KT 04/M10 A3025 RMK A01 T00421104  RH  034%=      5-min Rain = 0
KME1 120131Z 35006KT 04/M10 A3025 RMK A01 T00421104  RH  034%=      5-min Rain = 0
KME1 120132Z 35006KT 04/M10 A3025 RMK A01 T00431103  RH  034%=      5-min Rain = 0
KME1 120133Z 35006KT 04/M10 A3025 RMK A01 T00431104  RH  034%=      5-min Rain = 0
KME1 120134Z 35006KT 04/M10 A3025 RMK A01 T00421104  RH  034%=      5-min Rain = 0
KME1 120135Z 35005KT 04/M10 A3025 RMK A01 T00421103  RH  034%=      5-min Rain = 0
KME1 120136Z 34005KT 04/M10 A3025 RMK A01 T00421104  RH  034%=      5-min Rain = 0
KME1 120137Z 34006KT 04/M10 A3025 RMK A01 T00411104  RH  034%=      5-min Rain = 0
KME1 120138Z 34005KT 04/M10 A3025 RMK A01 T00401104  RH  034%=      5-min Rain = 0
KME1 120139Z 34005KT 04/M10 A3025 RMK A01 T00391104  RH  034%=      5-min Rain = 0
KME1 120140Z 35005KT 04/M11 A3025 RMK A01 T00381105  RH  034%=      5-min Rain = 0
KME1 120141Z 35005KT 04/M10 A3025 RMK A01 T00381104  RH  035%=      5-min Rain = 0
KME1 120142Z 35005KT 04/M10 A3025 RMK A01 T00371104  RH  035%=      5-min Rain = 0
KME1 120143Z 35005KT 04/M10 A3025 RMK A01 T00371104  RH  035%=      5-min Rain = 0
KME1 120144Z 35005KT 04/M10 A3025 RMK A01 T00361103  RH  035%=      5-min Rain = 0
KME1 120145Z 36004KT 04/M10 A3025 RMK A01 T00361104  RH  035%=      5-min Rain = 0
KME1 120146Z 00005KT 04/M10 A3025 RMK A01 T00351104  RH  035%=      5-min Rain = 0
KME1 120147Z 35005KT 03/M10 A3025 RMK A01 T00341104  RH  036%=      5-min Rain = 0
KME1 120148Z 35005KT 03/M10 A3025 RMK A01 T00341104  RH  036%=      5-min Rain = 0
KME1 120149Z 35005KT 03/M10 A3025 RMK A01 T00341103  RH  036%=      5-min Rain = 0
KME1 120150Z 36004KT 03/M10 A3025 RMK A01 T00341103  RH  036%=      5-min Rain = 0
KME1 120151Z 35004KT 03/M10 A3025 RMK A01 T00331103  RH  036%=      5-min Rain = 0
KME1 120152Z 35004KT 03/M10 A3025 RMK A01 T00331103  RH  036%=      5-min Rain = 0
KME1 120153Z 34004KT 03/M10 A3025 RMK A01 T00331103  RH  036%=      5-min Rain = 0
KME1 120154Z 34003KT 03/M10 A3025 RMK A01 T00331103  RH  036%=      5-min Rain = 0
KME1 120155Z 35003KT 03/M10 A3025 RMK A01 T00331103  RH  036%=      5-min Rain = 0
KME1 120156Z 35003KT 03/M10 A3025 RMK A01 T00331103  RH  036%=      5-min Rain = 0
KME1 120157Z 34003KT 03/M10 A3026 RMK A01 T00321104  RH  036%=      5-min Rain = 0
KME1 120158Z 33003KT 03/M10 A3026 RMK A01 T00321104  RH  036%=      5-min Rain = 0
KME1 120159Z 34003KT 03/M10 A3026 RMK A01 T00311104  RH  036%=      5-min Rain = 0
KME1 120200Z 34003KT 03/M10 A3026 RMK A01 T00311104  RH  036%=      5-min Rain = 0
KME1 120201Z 34003KT 03/M10 A3026 RMK A01 T00301104  RH  037%=      5-min Rain = 0
KME1 120202Z 34002KT 03/M10 A3026 RMK A01 T00301104  RH  037%=      5-min Rain = 0
KME1 120203Z 34003KT 03/M10 A3026 RMK A01 T00291104  RH  037%=      5-min Rain = 0
KME1 120204Z 33003KT 03/M10 A3026 RMK A01 T00291104  RH  037%=      5-min Rain = 0
KME1 120205Z 34003KT 03/M10 A3026 RMK A01 T00291104  RH  037%=      5-min Rain = 0
KME1 120206Z 34003KT 03/M10 A3026 RMK A01 T00291104  RH  037%=      5-min Rain = 0
KME1 120207Z 34002KT 03/M11 A3026 RMK A01 T00281105  RH  037%=      5-min Rain = 0
KME1 120208Z 33003KT 03/M11 A3026 RMK A01 T00281105  RH  037%=      5-min Rain = 0
KME1 120209Z 33002KT 03/M10 A3026 RMK A01 T00271104  RH  037%=      5-min Rain = 0
KME1 120210Z 32002KT 03/M10 A3026 RMK A01 T00271104  RH  037%=      5-min Rain = 0
KME1 120211Z 32002KT 03/M11 A3026 RMK A01 T00261105  RH  037%=      5-min Rain = 0
KME1 120212Z 31002KT 03/M11 A3026 RMK A01 T00261105  RH  037%=      5-min Rain = 0
KME1 120213Z 31001KT 03/M11 A3027 RMK A01 T00261105  RH  038%=      5-min Rain = 0
KME1 120214Z 31002KT 03/M11 A3027 RMK A01 T00251105  RH  038%=      5-min Rain = 0
KME1 120215Z 32002KT 02/M11 A3027 RMK A01 T00241105  RH  038%=      5-min Rain = 0
KME1 120216Z 33002KT 02/M11 A3027 RMK A01 T00241105  RH  038%=      5-min Rain = 0
KME1 120217Z 33002KT 02/M11 A3027 RMK A01 T00231105  RH  038%=      5-min Rain = 0
KME1 120218Z 32002KT 02/M11 A3027 RMK A01 T00221105  RH  038%=      5-min Rain = 0
KME1 120219Z 32001KT 02/M11 A3027 RMK A01 T00211105  RH  039%=      5-min Rain = 0
KME1 120220Z 33001KT 02/M11 A3027 RMK A01 T00191105  RH  039%=      5-min Rain = 0
KME1 120221Z 34001KT 02/M10 A3027 RMK A01 T00181104  RH  040%=      5-min Rain = 0
KME1 120222Z 35001KT 02/M10 A3027 RMK A01 T00171104  RH  040%=      5-min Rain = 0
KME1 120223Z 35002KT 02/M11 A3027 RMK A01 T00161106  RH  040%=      5-min Rain = 0
KME1 120224Z 35002KT 02/M11 A3027 RMK A01 T00161106  RH  040%=      5-min Rain = 0
KME1 120225Z 35002KT 02/M11 A3027 RMK A01 T00151106  RH  040%=      5-min Rain = 0
KME1 120226Z 34002KT 01/M11 A3027 RMK A01 T00141106  RH  041%=      5-min Rain = 0
KME1 120227Z 35002KT 01/M11 A3027 RMK A01 T00131105  RH  041%=      5-min Rain = 0
KME1 120228Z 36002KT 01/M11 A3027 RMK A01 T00131106  RH  041%=      5-min Rain = 0
KME1 120229Z 01002KT 01/M11 A3027 RMK A01 T00131106  RH  041%=      5-min Rain = 0
KME1 120230Z 00002KT 01/M11 A3028 RMK A01 T00131106  RH  041%=      5-min Rain = 0
KME1 120231Z 00002KT 01/M11 A3028 RMK A01 T00131105  RH  041%=      5-min Rain = 0
KME1 120232Z 01002KT 01/M11 A3028 RMK A01 T00131105  RH  041%=      5-min Rain = 0
KME1 120233Z 01002KT 01/M11 A3028 RMK A01 T00121105  RH  041%=      5-min Rain = 0
KME1 120234Z 02003KT 01/M11 A3028 RMK A01 T00111105  RH  042%=      5-min Rain = 0
KME1 120235Z 01003KT 01/M11 A3028 RMK A01 T00101105  RH  042%=      5-min Rain = 0
KME1 120236Z 01004KT 01/M11 A3028 RMK A01 T00081106  RH  042%=      5-min Rain = 0
KME1 120237Z 01005KT 01/M11 A3028 RMK A01 T00071105  RH  043%=      5-min Rain = 0
KME1 120238Z 00005KT 01/M11 A3028 RMK A01 T00061105  RH  043%=      5-min Rain = 0
KME1 120239Z 00006KT 01/M10 A3028 RMK A01 T00051104  RH  044%=      5-min Rain = 0
KME1 120240Z 00006KT 01/M10 A3028 RMK A01 T00051103  RH  044%=      5-min Rain = 0
KME1 120241Z 00006KT 01/M10 A3028 RMK A01 T00051102  RH  045%=      5-min Rain = 0
KME1 120242Z 36006KT 01/M10 A3028 RMK A01 T00051101  RH  045%=      5-min Rain = 0
KME1 120243Z 00007KT 01/M10 A3028 RMK A01 T00061101  RH  045%=      5-min Rain = 0
KME1 120244Z 36006KT 01/M10 A3028 RMK A01 T00071099  RH  045%=      5-min Rain = 0
KME1 120245Z 36008KT 01/M10 A3028 RMK A01 T00091098  RH  045%=      5-min Rain = 0
KME1 120246Z 00007KT 01/M10 A3028 RMK A01 T00131097  RH  044%=      5-min Rain = 0
KME1 120247Z 00007KT 02/M10 A3028 RMK A01 T00151096  RH  043%=      5-min Rain = 0
KME1 120248Z 36007KT 02/M10 A3028 RMK A01 T00181096  RH  043%=      5-min Rain = 0
KME1 120249Z 00006KT 02/M10 A3028 RMK A01 T00201097  RH  042%=      5-min Rain = 0
KME1 120250Z 00006KT 02/M10 A3029 RMK A01 T00211097  RH  041%=      5-min Rain = 0
KME1 120251Z 00006KT 02/M10 A3029 RMK A01 T00221098  RH  041%=      5-min Rain = 0
KME1 120252Z 36006KT 02/M10 A3029 RMK A01 T00221098  RH  040%=      5-min Rain = 0
KME1 120253Z 00006KT 02/M10 A3029 RMK A01 T00231099  RH  040%=      5-min Rain = 0
KME1 120254Z 36006KT 02/M10 A3029 RMK A01 T00231099  RH  040%=      5-min Rain = 0
KME1 120255Z 00006KT 02/M10 A3029 RMK A01 T00231100  RH  040%=      5-min Rain = 0
KME1 120256Z 00006KT 02/M10 A3029 RMK A01 T00231100  RH  040%=      5-min Rain = 0
KME1 120257Z 36006KT 02/M10 A3029 RMK A01 T00231100  RH  040%=      5-min Rain = 0
KME1 120258Z 00006KT 02/M10 A3029 RMK A01 T00231100  RH  040%=      5-min Rain = 0
KME1 120259Z 36006KT 02/M10 A3029 RMK A01 T00221101  RH  040%=      5-min Rain = 0
KME1 120300Z 00006KT 02/M10 A3029 RMK A01 T00221101  RH  040%=      5-min Rain = 0
KME1 120301Z 00005KT 02/M10 A3029 RMK A01 T00211101  RH  040%=      5-min Rain = 0
KME1 120302Z 00004KT 02/M10 A3029 RMK A01 T00211101  RH  040%=      5-min Rain = 0
KME1 120303Z 00004KT 02/M10 A3029 RMK A01 T00201101  RH  040%=      5-min Rain = 0
KME1 120304Z 00003KT 02/M10 A3029 RMK A01 T00191102  RH  040%=      5-min Rain = 0
KME1 120305Z 00003KT 02/M10 A3029 RMK A01 T00181103  RH  040%=      5-min Rain = 0
KME1 120306Z 00003KT 02/M10 A3029 RMK A01 T00171102  RH  041%=      5-min Rain = 0
KME1 120307Z 01003KT 02/M10 A3029 RMK A01 T00161103  RH  041%=      5-min Rain = 0
KME1 120308Z 01002KT 01/M10 A3029 RMK A01 T00131103  RH  042%=      5-min Rain = 0
KME1 120309Z 01002KT 01/M10 A3029 RMK A01 T00091104  RH  043%=      5-min Rain = 0
KME1 120310Z 01002KT 01/M11 A3029 RMK A01 T00051105  RH  043%=      5-min Rain = 0
KME1 120311Z 01002KT 00/M11 A3029 RMK A01 T00021105  RH  044%=      5-min Rain = 0
KME1 120312Z 01002KT M00/M11 A3029 RMK A01 T10011105  RH  045%=      5-min Rain = 0
KME1 120313Z 01002KT M00/M11 A3029 RMK A01 T10021105  RH  046%=      5-min Rain = 0
KME1 120314Z 01001KT M00/M11 A3029 RMK A01 T10031105  RH  046%=      5-min Rain = 0
KME1 120315Z 01001KT M00/M11 A3029 RMK A01 T10031105  RH  046%=      5-min Rain = 0
KME1 120316Z 00000KT M00/M11 A3029 RMK A01 T10041105  RH  046%=      5-min Rain = 0
KME1 120317Z 00000KT M00/M10 A3029 RMK A01 T10031104  RH  046%=      5-min Rain = 0
KME1 120318Z 17000KT M00/M10 A3029 RMK A01 T10031103  RH  047%=      5-min Rain = 0
KME1 120319Z 17001KT M00/M10 A3029 RMK A01 T10021103  RH  047%=      5-min Rain = 0
KME1 120320Z 17002KT M00/M10 A3029 RMK A01 T10021103  RH  047%=      5-min Rain = 0
KME1 120321Z 17002KT M00/M10 A3029 RMK A01 T10031102  RH  047%=      5-min Rain = 0
KME1 120322Z 17002KT M01/M10 A303 RMK A01 T10051103  RH  047%=      5-min Rain = 0
KME1 120323Z 17002KT M01/M10 A303 RMK A01 T10051103  RH  048%=      5-min Rain = 0
KME1 120324Z 17002KT M01/M10 A303 RMK A01 T10061103  RH  048%=      5-min Rain = 0
KME1 120325Z 18002KT M01/M10 A303 RMK A01 T10071104  RH  048%=      5-min Rain = 0
KME1 120326Z 18002KT M01/M10 A303 RMK A01 T10071103  RH  048%=      5-min Rain = 0
KME1 120327Z 18001KT M01/M10 A303 RMK A01 T10081103  RH  048%=      5-min Rain = 0
KME1 120328Z 18002KT M01/M10 A303 RMK A01 T10081104  RH  048%=      5-min Rain = 0
KME1 120329Z 18001KT M01/M10 A303 RMK A01 T10071103  RH  048%=      5-min Rain = 0
KME1 120330Z 18001KT M01/M10 A303 RMK A01 T10071103  RH  048%=      5-min Rain = 0
KME1 120331Z 17001KT M01/M10 A303 RMK A01 T10071103  RH  048%=      5-min Rain = 0
KME1 120332Z 17001KT M01/M10 A303 RMK A01 T10071102  RH  049%=      5-min Rain = 0
KME1 120333Z 15001KT M01/M10 A303 RMK A01 T10091102  RH  049%=      5-min Rain = 0
KME1 120334Z 14001KT M01/M10 A303 RMK A01 T10091103  RH  049%=      5-min Rain = 0
KME1 120335Z 14001KT M01/M10 A303 RMK A01 T10101103  RH  049%=      5-min Rain = 0
KME1 120336Z 14001KT M01/M10 A303 RMK A01 T10101104  RH  049%=      5-min Rain = 0
KME1 120337Z 14001KT M01/M10 A303 RMK A01 T10091104  RH  048%=      5-min Rain = 0
KME1 120338Z 14001KT M01/M10 A303 RMK A01 T10081103  RH  049%=      5-min Rain = 0
KME1 120339Z 15001KT M01/M10 A303 RMK A01 T10091102  RH  049%=      5-min Rain = 0
KME1 120340Z 15000KT M01/M10 A303 RMK A01 T10091102  RH  049%=      5-min Rain = 0
KME1 120341Z 00000KT M01/M10 A303 RMK A01 T10071102  RH  049%=      5-min Rain = 0
KME1 120342Z 00000KT M00/M10 A303 RMK A01 T10041102  RH  048%=      5-min Rain = 0
KME1 120343Z 00000KT M00/M10 A303 RMK A01 T10041102  RH  047%=      5-min Rain = 0
KME1 120344Z 00000KT M00/M10 A303 RMK A01 T10041103  RH  047%=      5-min Rain = 0
KME1 120345Z 00000KT M00/M10 A303 RMK A01 T10031102  RH  047%=      5-min Rain = 0
KME1 120346Z 00000KT M00/M10 A303 RMK A01 T10041102  RH  047%=      5-min Rain = 0
KME1 120347Z 00000KT M00/M10 A303 RMK A01 T10021101  RH  047%=      5-min Rain = 0
KME1 120348Z 00000KT M00/M10 A303 RMK A01 T10031102  RH  047%=      5-min Rain = 0
KME1 120349Z 00000KT M01/M10 A303 RMK A01 T10061103  RH  048%=      5-min Rain = 0
KME1 120350Z 00000KT M01/M10 A303 RMK A01 T10051103  RH  048%=      5-min Rain = 0
KME1 120351Z 24000KT M00/M10 A303 RMK A01 T10041102  RH  047%=      5-min Rain = 0
KME1 120352Z 25001KT M00/M10 A303 RMK A01 T10041102  RH  047%=      5-min Rain = 0
KME1 120353Z 27001KT M01/M10 A303 RMK A01 T10051102  RH  048%=      5-min Rain = 0
KME1 120354Z 29001KT M01/M10 A303 RMK A01 T10061102  RH  048%=      5-min Rain = 0
KME1 120355Z 29001KT M01/M10 A303 RMK A01 T10061102  RH  048%=      5-min Rain = 0
KME1 120356Z 30001KT M01/M10 A303 RMK A01 T10051101  RH  048%=      5-min Rain = 0
KME1 120357Z 31002KT M01/M10 A303 RMK A01 T10051102  RH  048%=      5-min Rain = 0
KME1 120358Z 32002KT M00/M10 A303 RMK A01 T10041101  RH  048%=      5-min Rain = 0
KME1 120359Z 32002KT M00/M10 A3031 RMK A01 T10041102  RH  048%=      5-min Rain = 0
KME1 120400Z 32002KT M00/M10 A3031 RMK A01 T10041101  RH  048%=      5-min Rain = 0
KME1 120401Z 32002KT M01/M10 A3031 RMK A01 T10061102  RH  048%=      5-min Rain = 0
KME1 120402Z 33002KT M01/M10 A3031 RMK A01 T10071102  RH  049%=      5-min Rain = 0
KME1 120403Z 32002KT M01/M10 A3031 RMK A01 T10061102  RH  048%=      5-min Rain = 0
KME1 120404Z 32002KT M00/M10 A3031 RMK A01 T10041103  RH  047%=      5-min Rain = 0
KME1 120405Z 33003KT M00/M10 A3031 RMK A01 T10021103  RH  046%=      5-min Rain = 0
KME1 120406Z 33003KT 00/10 A3031 RMK A01 T00-00-103  RH  046%=      5-min Rain = 0
KME1 120407Z 33003KT 00/M10 A3031 RMK A01 T00031102  RH  045%=      5-min Rain = 0
KME1 120408Z 33004KT 01/M10 A3031 RMK A01 T00061102  RH  044%=      5-min Rain = 0
KME1 120409Z 33004KT 01/M10 A3031 RMK A01 T00081102  RH  044%=      5-min Rain = 0
KME1 120410Z 33004KT 01/M10 A3031 RMK A01 T00071102  RH  044%=      5-min Rain = 0
KME1 120411Z 32005KT 00/M10 A3031 RMK A01 T00041103  RH  044%=      5-min Rain = 0
KME1 120412Z 32005KT 00/10 A3031 RMK A01 T00000-103  RH  046%=      5-min Rain = 0
KME1 120413Z 32004KT M00/M10 A3031 RMK A01 T10031103  RH  047%=      5-min Rain = 0
KME1 120414Z 32004KT M01/M10 A3031 RMK A01 T10081103  RH  048%=      5-min Rain = 0
KME1 120415Z 32004KT M01/M10 A3031 RMK A01 T10111102  RH  050%=      5-min Rain = 0
KME1 120416Z 32004KT M02/M10 A3031 RMK A01 T10151102  RH  051%=      5-min Rain = 0
KME1 120417Z 31003KT M02/M10 A3031 RMK A01 T10181102  RH  053%=      5-min Rain = 0
KME1 120418Z 31003KT M02/M10 A3031 RMK A01 T10221102  RH  054%=      5-min Rain = 0
KME1 120419Z 30003KT M02/M10 A3031 RMK A01 T10241101  RH  055%=      5-min Rain = 0
KME1 120420Z 29002KT M03/M10 A3031 RMK A01 T10271102  RH  056%=      5-min Rain = 0
KME1 120421Z 28002KT M03/M10 A3031 RMK A01 T10321103  RH  058%=      5-min Rain = 0
KME1 120422Z 25001KT M04/M10 A3031 RMK A01 T10361104  RH  059%=      5-min Rain = 0
KME1 120423Z 19001KT M04/M10 A3031 RMK A01 T10381104  RH  060%=      5-min Rain = 0
KME1 120424Z 19001KT M04/M10 A3031 RMK A01 T10381103  RH  061%=      5-min Rain = 0
KME1 120425Z 19002KT M04/M10 A3031 RMK A01 T10381101  RH  062%=      5-min Rain = 0
KME1 120426Z 19002KT M04/M10 A3031 RMK A01 T10391100  RH  062%=      5-min Rain = 0
KME1 120427Z 18002KT M04/M10 A3031 RMK A01 T10381100  RH  062%=      5-min Rain = 0
KME1 120428Z 18003KT M04/M10 A3031 RMK A01 T10381099  RH  063%=      5-min Rain = 0
KME1 120429Z 19003KT M04/M10 A3031 RMK A01 T10381099  RH  062%=      5-min Rain = 0
KME1 120430Z 19004KT M04/M10 A3032 RMK A01 T10361099  RH  062%=      5-min Rain = 0
KME1 120431Z 18004KT M04/M10 A3032 RMK A01 T10361100  RH  061%=      5-min Rain = 0
KME1 120432Z 19004KT M04/M10 A3032 RMK A01 T10361100  RH  061%=      5-min Rain = 0
KME1 120433Z 20003KT M04/M10 A3032 RMK A01 T10351101  RH  061%=      5-min Rain = 0
KME1 120434Z 21003KT M04/M10 A3032 RMK A01 T10351100  RH  061%=      5-min Rain = 0
KME1 120435Z 20004KT M04/M10 A3032 RMK A01 T10351099  RH  061%=      5-min Rain = 0
KME1 120436Z 20005KT M03/M10 A3032 RMK A01 T10341100  RH  060%=      5-min Rain = 0
KME1 120437Z 21005KT M03/M10 A3032 RMK A01 T10321100  RH  059%=      5-min Rain = 0
KME1 120438Z 20005KT M03/M10 A3032 RMK A01 T10311100  RH  059%=      5-min Rain = 0
KME1 120439Z 21005KT M03/M10 A3032 RMK A01 T10311100  RH  059%=      5-min Rain = 0
KME1 120440Z 21005KT M03/M10 A3032 RMK A01 T10311100  RH  059%=      5-min Rain = 0
KME1 120441Z 21005KT M03/M10 A3032 RMK A01 T10311100  RH  059%=      5-min Rain = 0
KME1 120442Z 22005KT M03/M10 A3032 RMK A01 T10311100  RH  059%=      5-min Rain = 0
KME1 120443Z 22004KT M03/M10 A3032 RMK A01 T10321100  RH  059%=      5-min Rain = 0
KME1 120444Z 22004KT M03/M10 A3032 RMK A01 T10321100  RH  059%=      5-min Rain = 0
KME1 120445Z 23004KT M03/M10 A3032 RMK A01 T10311100  RH  059%=      5-min Rain = 0
KME1 120446Z 23004KT M03/M10 A3032 RMK A01 T10311100  RH  059%=      5-min Rain = 0
KME1 120447Z 25004KT M03/M10 A3032 RMK A01 T10311100  RH  059%=      5-min Rain = 0
KME1 120448Z 25004KT M03/M10 A3032 RMK A01 T10311100  RH  059%=      5-min Rain = 0
KME1 120449Z 26004KT M03/M10 A3032 RMK A01 T10311100  RH  059%=      5-min Rain = 0
KME1 120450Z 27003KT M03/M10 A3032 RMK A01 T10311100  RH  059%=      5-min Rain = 0
KME1 120451Z 30002KT M03/M10 A3032 RMK A01 T10321100  RH  059%=      5-min Rain = 0
KME1 120452Z 34003KT M03/M10 A3032 RMK A01 T10331100  RH  060%=      5-min Rain = 0
KME1 120453Z 35004KT M03/M10 A3032 RMK A01 T10321100  RH  060%=      5-min Rain = 0
KME1 120454Z 34004KT M03/M10 A3032 RMK A01 T10321100  RH  060%=      5-min Rain = 0
KME1 120455Z 34005KT M03/M10 A3032 RMK A01 T10341100  RH  061%=      5-min Rain = 0
KME1 120456Z 32005KT M04/M10 A3032 RMK A01 T10371100  RH  062%=      5-min Rain = 0
KME1 120457Z 31005KT M04/M10 A3032 RMK A01 T10381100  RH  062%=      5-min Rain = 0
KME1 120458Z 32005KT M04/M10 A3032 RMK A01 T10381100  RH  062%=      5-min Rain = 0
KME1 120459Z 30005KT M04/M10 A3032 RMK A01 T10391100  RH  062%=      5-min Rain = 0
KME1 120500Z 30006KT M04/M10 A3032 RMK A01 T10381100  RH  062%=      5-min Rain = 0
KME1 120501Z 30006KT M04/M10 A3032 RMK A01 T10381101  RH  062%=      5-min Rain = 0
KME1 120502Z 30006KT M04/M10 A3032 RMK A01 T10381100  RH  062%=      5-min Rain = 0
KME1 120503Z 30006KT M04/M10 A3032 RMK A01 T10381100  RH  062%=      5-min Rain = 0
KME1 120504Z 30006KT M04/M10 A3032 RMK A01 T10381100  RH  062%=      5-min Rain = 0
KME1 120505Z 30006KT M04/M10 A3032 RMK A01 T10381100  RH  062%=      5-min Rain = 0
KME1 120506Z 30007KT M04/M10 A3032 RMK A01 T10371099  RH  062%=      5-min Rain = 0
KME1 120507Z 31007KT M04/M10 A3032 RMK A01 T10351098  RH  062%=      5-min Rain = 0
KME1 120508Z 31007KT M03/M10 A3032 RMK A01 T10321097  RH  061%=      5-min Rain = 0
KME1 120509Z 31007KT M03/M10 A3032 RMK A01 T10301097  RH  060%=      5-min Rain = 0
KME1 120510Z 31006KT M03/M10 A3032 RMK A01 T10271096  RH  059%=      5-min Rain = 0
KME1 120511Z 31007KT M02/M10 A3032 RMK A01 T10241096  RH  058%=      5-min Rain = 0
KME1 120512Z 30007KT M02/M10 A3032 RMK A01 T10201095  RH  056%=      5-min Rain = 0
KME1 120513Z 31007KT M02/M10 A3032 RMK A01 T10171095  RH  055%=      5-min Rain = 0
KME1 120514Z 31007KT M01/M10 A3032 RMK A01 T10141096  RH  054%=      5-min Rain = 0
KME1 120515Z 31007KT M01/M10 A3032 RMK A01 T10121096  RH  053%=      5-min Rain = 0
KME1 120516Z 31006KT M01/M10 A3031 RMK A01 T10111097  RH  052%=      5-min Rain = 0
KME1 120517Z 31006KT M01/M10 A3031 RMK A01 T10101097  RH  052%=      5-min Rain = 0
KME1 120518Z 31005KT M01/M10 A3031 RMK A01 T10101097  RH  052%=      5-min Rain = 0
KME1 120519Z 30004KT M01/M10 A3032 RMK A01 T10111098  RH  052%=      5-min Rain = 0
KME1 120520Z 30004KT M02/M10 A3032 RMK A01 T10151100  RH  052%=      5-min Rain = 0
KME1 120521Z 30004KT M02/M10 A3032 RMK A01 T10211102  RH  054%=      5-min Rain = 0
KME1 120522Z 30004KT M03/M10 A3032 RMK A01 T10251103  RH  055%=      5-min Rain = 0
KME1 120523Z 30004KT M03/M10 A3032 RMK A01 T10271102  RH  056%=      5-min Rain = 0
KME1 120524Z 30003KT M03/M10 A3032 RMK A01 T10281101  RH  057%=      5-min Rain = 0
KME1 120525Z 30003KT M03/M10 A3032 RMK A01 T10321102  RH  058%=      5-min Rain = 0
KME1 120526Z 30002KT M04/M10 A3032 RMK A01 T10361103  RH  060%=      5-min Rain = 0
KME1 120527Z 31002KT M04/M10 A3032 RMK A01 T10381103  RH  061%=      5-min Rain = 0
KME1 120528Z 31002KT M04/M10 A3032 RMK A01 T10401103  RH  062%=      5-min Rain = 0
KME1 120529Z 30002KT M04/M10 A3032 RMK A01 T10421103  RH  062%=      5-min Rain = 0
KME1 120530Z 29001KT M04/M10 A3032 RMK A01 T10431103  RH  063%=      5-min Rain = 0
KME1 120531Z 28001KT M04/M10 A3031 RMK A01 T10431102  RH  064%=      5-min Rain = 0
KME1 120532Z 27000KT M04/M10 A3031 RMK A01 T10441102  RH  064%=      5-min Rain = 0
KME1 120533Z 28000KT M04/M10 A3031 RMK A01 T10441101  RH  064%=      5-min Rain = 0
KME1 120534Z 28001KT M04/M10 A3032 RMK A01 T10441101  RH  064%=      5-min Rain = 0
KME1 120535Z 30000KT M04/M10 A3032 RMK A01 T10441101  RH  065%=      5-min Rain = 0
KME1 120536Z 30000KT M05/M10 A3032 RMK A01 T10451100  RH  065%=      5-min Rain = 0
KME1 120537Z 30000KT M05/M10 A3032 RMK A01 T10451100  RH  065%=      5-min Rain = 0
KME1 120538Z 00000KT M05/M10 A3032 RMK A01 T10451100  RH  065%=      5-min Rain = 0
KME1 120539Z 00000KT M05/M10 A3031 RMK A01 T10451100  RH  066%=      5-min Rain = 0
KME1 120540Z 00000KT M05/M10 A3031 RMK A01 T10461100  RH  066%=      5-min Rain = 0
KME1 120541Z 00000KT M05/M10 A3031 RMK A01 T10461100  RH  066%=      5-min Rain = 0
KME1 120542Z 00000KT M05/M10 A3031 RMK A01 T10461100  RH  066%=      5-min Rain = 0
KME1 120543Z 00000KT M05/M10 A3031 RMK A01 T10461100  RH  066%=      5-min Rain = 0
KME1 120544Z 14000KT M05/M10 A3031 RMK A01 T10461099  RH  066%=      5-min Rain = 0
KME1 120545Z 14000KT M05/M10 A3031 RMK A01 T10461098  RH  067%=      5-min Rain = 0
KME1 120546Z 23000KT M05/M10 A3031 RMK A01 T10461098  RH  067%=      5-min Rain = 0
KME1 120547Z 19000KT M05/M10 A3031 RMK A01 T10451097  RH  067%=      5-min Rain = 0
KME1 120548Z 22001KT M04/M10 A3031 RMK A01 T10441096  RH  067%=      5-min Rain = 0
KME1 120549Z 23001KT M04/M10 A3031 RMK A01 T10431096  RH  067%=      5-min Rain = 0
KME1 120550Z 22001KT M04/M10 A3031 RMK A01 T10421095  RH  067%=      5-min Rain = 0
KME1 120551Z 21002KT M04/M10 A3031 RMK A01 T10421095  RH  067%=      5-min Rain = 0
KME1 120552Z 21002KT M04/M10 A3031 RMK A01 T10411095  RH  066%=      5-min Rain = 0
KME1 120553Z 20003KT M04/M10 A3031 RMK A01 T10411095  RH  066%=      5-min Rain = 0
KME1 120554Z 21002KT M04/M10 A3031 RMK A01 T10411095  RH  066%=      5-min Rain = 0
KME1 120555Z 22002KT M04/M10 A3031 RMK A01 T10411095  RH  066%=      5-min Rain = 0
KME1 120556Z 22002KT M04/M10 A3031 RMK A01 T10401095  RH  066%=      5-min Rain = 0
KME1 120557Z 23002KT M04/M10 A3031 RMK A01 T10391095  RH  065%=      5-min Rain = 0
KME1 120558Z 24003KT M04/M10 A3031 RMK A01 T10391095  RH  065%=      5-min Rain = 0
KME1 120559Z 25003KT M04/M10 A3031 RMK A01 T10381095  RH  065%=      5-min Rain = 0

Page generated in 0.138 seconds.